Observation data for Doole 3WNW on 08/06/2020      Previous  Date       Current Mesonet Observations  Soil Data  Daily Summary Page  Observations in Plain Language
KDO2 060500Z 16011KT 30/15 A2995 RMK A01 T02980150  RH  041%=      5-min Rain = 0
KDO2 060501Z 16011KT 30/15 A2995 RMK A01 T02980150  RH  041%=      5-min Rain = 0
KDO2 060502Z 17012KT 30/15 A2995 RMK A01 T02980150  RH  041%=      5-min Rain = 0
KDO2 060503Z 16011KT 30/15 A2995 RMK A01 T02980150  RH  041%=      5-min Rain = 0
KDO2 060504Z 16008KT 30/15 A2995 RMK A01 T02980150  RH  041%=      5-min Rain = 0
KDO2 060505Z 16010KT 30/15 A2995 RMK A01 T02980150  RH  041%=      5-min Rain = 0
KDO2 060506Z 16013KT 30/15 A2995 RMK A01 T02970150  RH  041%=      5-min Rain = 0
KDO2 060507Z 15010KT 30/15 A2995 RMK A01 T02970150  RH  041%=      5-min Rain = 0
KDO2 060508Z 16009KT 30/15 A2995 RMK A01 T02970150  RH  041%=      5-min Rain = 0
KDO2 060509Z 16010KT 30/15 A2995 RMK A01 T02960150  RH  041%=      5-min Rain = 0
KDO2 060510Z 16010KT 30/15 A2995 RMK A01 T02950150  RH  041%=      5-min Rain = 0
KDO2 060511Z 16008KT 30/15 A2995 RMK A01 T02950150  RH  041%=      5-min Rain = 0
KDO2 060512Z 16011KT 30/15 A2995 RMK A01 T02950150  RH  041%=      5-min Rain = 0
KDO2 060513Z 16011KT 29/15 A2995 RMK A01 T02940150  RH  041%=      5-min Rain = 0
KDO2 060514Z 16011KT 29/15 A2995 RMK A01 T02940150  RH  041%=      5-min Rain = 0
KDO2 060515Z 17008KT 29/15 A2995 RMK A01 T02940149  RH  041%=      5-min Rain = 0
KDO2 060516Z 16010KT 29/15 A2995 RMK A01 T02940149  RH  041%=      5-min Rain = 0
KDO2 060517Z 16009KT 29/15 A2995 RMK A01 T02940150  RH  041%=      5-min Rain = 0
KDO2 060518Z 16010KT 29/15 A2995 RMK A01 T02940150  RH  042%=      5-min Rain = 0
KDO2 060519Z 16010KT 29/15 A2996 RMK A01 T02940150  RH  042%=      5-min Rain = 0
KDO2 060520Z 16011KT 29/15 A2996 RMK A01 T02940150  RH  042%=      5-min Rain = 0
KDO2 060521Z 16010KT 29/15 A2996 RMK A01 T02930149  RH  042%=      5-min Rain = 0
KDO2 060522Z 16009KT 29/15 A2996 RMK A01 T02940150  RH  042%=      5-min Rain = 0
KDO2 060523Z 16010KT 29/15 A2996 RMK A01 T02930150  RH  042%=      5-min Rain = 0
KDO2 060524Z 16010KT 29/15 A2996 RMK A01 T02930150  RH  042%=      5-min Rain = 0
KDO2 060525Z 15010KT 29/15 A2996 RMK A01 T02930150  RH  042%=      5-min Rain = 0
KDO2 060526Z 16009KT 29/15 A2996 RMK A01 T02920150  RH  042%=      5-min Rain = 0
KDO2 060527Z 16010KT 29/15 A2996 RMK A01 T02930150  RH  042%=      5-min Rain = 0
KDO2 060528Z 16009KT 29/15 A2996 RMK A01 T02930150  RH  042%=      5-min Rain = 0
KDO2 060529Z 16011KT 29/15 A2996 RMK A01 T02930150  RH  042%=      5-min Rain = 0
KDO2 060530Z 16011KT 29/15 A2996 RMK A01 T02920149  RH  042%=      5-min Rain = 0
KDO2 060531Z 15011KT 29/15 A2996 RMK A01 T02920149  RH  042%=      5-min Rain = 0
KDO2 060532Z 16010KT 29/15 A2996 RMK A01 T02930150  RH  042%=      5-min Rain = 0
KDO2 060533Z 16011KT 29/15 A2996 RMK A01 T02920149  RH  042%=      5-min Rain = 0
KDO2 060534Z 16012KT 29/15 A2996 RMK A01 T02920149  RH  042%=      5-min Rain = 0
KDO2 060535Z 16010KT 29/15 A2996 RMK A01 T02920149  RH  042%=      5-min Rain = 0
KDO2 060536Z 15011KT 29/15 A2996 RMK A01 T02920150  RH  042%=      5-min Rain = 0
KDO2 060537Z 16010KT 29/15 A2996 RMK A01 T02920149  RH  042%=      5-min Rain = 0
KDO2 060538Z 16011KT 29/15 A2996 RMK A01 T02920150  RH  042%=      5-min Rain = 0
KDO2 060539Z 16010KT 29/15 A2996 RMK A01 T02920150  RH  042%=      5-min Rain = 0
KDO2 060540Z 16010KT 29/15 A2996 RMK A01 T02920150  RH  042%=      5-min Rain = 0
KDO2 060541Z 16011KT 29/15 A2996 RMK A01 T02920150  RH  042%=      5-min Rain = 0
KDO2 060542Z 16011KT 29/15 A2996 RMK A01 T02920150  RH  042%=      5-min Rain = 0
KDO2 060543Z 16010KT 29/15 A2996 RMK A01 T02920149  RH  042%=      5-min Rain = 0
KDO2 060544Z 16010KT 29/15 A2996 RMK A01 T02920149  RH  042%=      5-min Rain = 0
KDO2 060545Z 15008KT 29/15 A2996 RMK A01 T02920150  RH  042%=      5-min Rain = 0
KDO2 060546Z 16010KT 29/15 A2996 RMK A01 T02900149  RH  042%=      5-min Rain = 0
KDO2 060547Z 16012KT 29/15 A2996 RMK A01 T02900150  RH  042%=      5-min Rain = 0
KDO2 060548Z 16011KT 29/15 A2996 RMK A01 T02900150  RH  042%=      5-min Rain = 0
KDO2 060549Z 16010KT 29/15 A2996 RMK A01 T02910150  RH  042%=      5-min Rain = 0
KDO2 060550Z 16011KT 29/15 A2996 RMK A01 T02910150  RH  042%=      5-min Rain = 0
KDO2 060551Z 16010KT 29/15 A2996 RMK A01 T02900150  RH  042%=      5-min Rain = 0
KDO2 060552Z 16010KT 29/15 A2996 RMK A01 T02900150  RH  043%=      5-min Rain = 0
KDO2 060553Z 16010KT 29/15 A2996 RMK A01 T02900150  RH  043%=      5-min Rain = 0
KDO2 060554Z 16010KT 29/15 A2996 RMK A01 T02890150  RH  043%=      5-min Rain = 0
KDO2 060555Z 16011KT 29/15 A2996 RMK A01 T02890150  RH  043%=      5-min Rain = 0
KDO2 060556Z 16011G16KT 29/15 A2996 RMK A01 T02890150  RH  043%=      5-min Rain = 0
KDO2 060557Z 16010KT 29/15 A2996 RMK A01 T02890150  RH  043%=      5-min Rain = 0
KDO2 060558Z 16011KT 29/15 A2996 RMK A01 T02890151  RH  043%=      5-min Rain = 0
KDO2 060559Z 16011KT 29/15 A2996 RMK A01 T02890151  RH  043%=      5-min Rain = 0
KDO2 060600Z 16011KT 29/15 A2996 RMK A01 T02890151  RH  043%=      5-min Rain = 0
KDO2 060601Z 16011KT 29/15 A2996 RMK A01 T02900151  RH  043%=      5-min Rain = 0
KDO2 060602Z 15010KT 29/15 A2996 RMK A01 T02890151  RH  043%=      5-min Rain = 0
KDO2 060603Z 16010KT 29/15 A2996 RMK A01 T02890151  RH  043%=      5-min Rain = 0
KDO2 060604Z 16011KT 29/15 A2996 RMK A01 T02890151  RH  043%=      5-min Rain = 0
KDO2 060605Z 16012KT 29/15 A2996 RMK A01 T02880150  RH  043%=      5-min Rain = 0
KDO2 060606Z 16011KT 29/15 A2996 RMK A01 T02890151  RH  043%=      5-min Rain = 0
KDO2 060607Z 15011KT 29/15 A2996 RMK A01 T02890151  RH  043%=      5-min Rain = 0
KDO2 060608Z 16010KT 29/15 A2996 RMK A01 T02890151  RH  043%=      5-min Rain = 0
KDO2 060609Z 16009KT 29/15 A2996 RMK A01 T02890151  RH  043%=      5-min Rain = 0
KDO2 060610Z 16011KT 29/15 A2996 RMK A01 T02880151  RH  043%=      5-min Rain = 0
KDO2 060611Z 16009KT 29/15 A2996 RMK A01 T02880151  RH  043%=      5-min Rain = 0
KDO2 060612Z 16011KT 29/15 A2996 RMK A01 T02880152  RH  043%=      5-min Rain = 0
KDO2 060613Z 16011KT 29/15 A2996 RMK A01 T02880151  RH  043%=      5-min Rain = 0
KDO2 060614Z 16010KT 29/15 A2996 RMK A01 T02880152  RH  044%=      5-min Rain = 0
KDO2 060615Z 16010KT 29/15 A2996 RMK A01 T02880152  RH  044%=      5-min Rain = 0
KDO2 060616Z 16012KT 29/15 A2996 RMK A01 T02870152  RH  044%=      5-min Rain = 0
KDO2 060617Z 17010KT 29/15 A2996 RMK A01 T02870152  RH  044%=      5-min Rain = 0
KDO2 060618Z 16010KT 29/15 A2996 RMK A01 T02870152  RH  044%=      5-min Rain = 0
KDO2 060619Z 17011KT 29/15 A2996 RMK A01 T02870152  RH  044%=      5-min Rain = 0
KDO2 060620Z 16011KT 29/15 A2996 RMK A01 T02870152  RH  044%=      5-min Rain = 0
KDO2 060621Z 16012KT 29/15 A2996 RMK A01 T02870152  RH  044%=      5-min Rain = 0
KDO2 060622Z 16011KT 29/15 A2996 RMK A01 T02870152  RH  044%=      5-min Rain = 0
KDO2 060623Z 16010G15KT 29/15 A2996 RMK A01 T02870152  RH  044%=      5-min Rain = 0
KDO2 060624Z 17012KT 29/15 A2996 RMK A01 T02870153  RH  044%=      5-min Rain = 0
KDO2 060625Z 17011KT 29/15 A2996 RMK A01 T02870153  RH  044%=      5-min Rain = 0
KDO2 060626Z 17012G18KT 29/15 A2996 RMK A01 T02870153  RH  044%=      5-min Rain = 0
KDO2 060627Z 16011KT 29/15 A2996 RMK A01 T02870153  RH  044%=      5-min Rain = 0
KDO2 060628Z 17010KT 29/15 A2996 RMK A01 T02870154  RH  044%=      5-min Rain = 0
KDO2 060629Z 16009KT 29/15 A2996 RMK A01 T02860153  RH  044%=      5-min Rain = 0
KDO2 060630Z 16010KT 29/15 A2996 RMK A01 T02850153  RH  045%=      5-min Rain = 0
KDO2 060631Z 16009KT 29/15 A2996 RMK A01 T02850154  RH  045%=      5-min Rain = 0
KDO2 060632Z 16009KT 29/15 A2996 RMK A01 T02850154  RH  045%=      5-min Rain = 0
KDO2 060633Z 17011KT 28/15 A2996 RMK A01 T02840153  RH  045%=      5-min Rain = 0
KDO2 060634Z 16010KT 29/15 A2996 RMK A01 T02850154  RH  045%=      5-min Rain = 0
KDO2 060635Z 17010KT 29/15 A2996 RMK A01 T02850154  RH  045%=      5-min Rain = 0
KDO2 060636Z 16010KT 29/15 A2996 RMK A01 T02850154  RH  045%=      5-min Rain = 0
KDO2 060637Z 17009KT 29/15 A2996 RMK A01 T02850154  RH  045%=      5-min Rain = 0
KDO2 060638Z 17010KT 29/15 A2996 RMK A01 T02850154  RH  045%=      5-min Rain = 0
KDO2 060639Z 17011KT 28/15 A2996 RMK A01 T02840154  RH  045%=      5-min Rain = 0
KDO2 060640Z 17009KT 28/16 A2996 RMK A01 T02840155  RH  045%=      5-min Rain = 0
KDO2 060641Z 16009KT 28/15 A2996 RMK A01 T02840154  RH  045%=      5-min Rain = 0
KDO2 060642Z 16011KT 28/16 A2996 RMK A01 T02840155  RH  045%=      5-min Rain = 0
KDO2 060643Z 16011KT 28/15 A2996 RMK A01 T02840154  RH  045%=      5-min Rain = 0
KDO2 060644Z 16011KT 28/15 A2996 RMK A01 T02840154  RH  045%=      5-min Rain = 0
KDO2 060645Z 16012KT 28/16 A2996 RMK A01 T02840155  RH  045%=      5-min Rain = 0
KDO2 060646Z 17013KT 28/16 A2996 RMK A01 T02840155  RH  045%=      5-min Rain = 0
KDO2 060647Z 17011KT 29/16 A2996 RMK A01 T02850156  RH  045%=      5-min Rain = 0
KDO2 060648Z 16010KT 28/16 A2996 RMK A01 T02840156  RH  046%=      5-min Rain = 0
KDO2 060649Z 17011KT 28/16 A2996 RMK A01 T02840156  RH  046%=      5-min Rain = 0
KDO2 060650Z 17011KT 28/16 A2996 RMK A01 T02840156  RH  046%=      5-min Rain = 0
KDO2 060651Z 16011KT 28/16 A2996 RMK A01 T02840156  RH  046%=      5-min Rain = 0
KDO2 060652Z 17009KT 28/16 A2996 RMK A01 T02830155  RH  046%=      5-min Rain = 0
KDO2 060653Z 16009G14KT 28/16 A2996 RMK A01 T02820156  RH  046%=      5-min Rain = 0
KDO2 060654Z 17010KT 28/16 A2996 RMK A01 T02820156  RH  046%=      5-min Rain = 0
KDO2 060655Z 16011KT 28/16 A2996 RMK A01 T02820156  RH  046%=      5-min Rain = 0
KDO2 060656Z 16012KT 28/16 A2996 RMK A01 T02820156  RH  046%=      5-min Rain = 0
KDO2 060657Z 16010KT 28/16 A2996 RMK A01 T02810156  RH  046%=      5-min Rain = 0
KDO2 060658Z 16010KT 28/16 A2996 RMK A01 T02820156  RH  046%=      5-min Rain = 0
KDO2 060659Z 16009KT 28/16 A2996 RMK A01 T02820156  RH  046%=      5-min Rain = 0
KDO2 060700Z 16009G14KT 28/16 A2996 RMK A01 T02810156  RH  047%=      5-min Rain = 0
KDO2 060701Z 16010KT 28/16 A2996 RMK A01 T02800156  RH  047%=      5-min Rain = 0
KDO2 060702Z 16008KT 28/16 A2995 RMK A01 T02800157  RH  047%=      5-min Rain = 0
KDO2 060703Z 17011KT 28/16 A2996 RMK A01 T02800157  RH  047%=      5-min Rain = 0
KDO2 060704Z 17010KT 28/16 A2996 RMK A01 T02800157  RH  047%=      5-min Rain = 0
KDO2 060705Z 17010KT 28/16 A2995 RMK A01 T02800157  RH  047%=      5-min Rain = 0
KDO2 060706Z 16008KT 28/16 A2995 RMK A01 T02800157  RH  047%=      5-min Rain = 0
KDO2 060707Z 17010KT 28/16 A2995 RMK A01 T02800157  RH  047%=      5-min Rain = 0
KDO2 060708Z 16011KT 28/16 A2995 RMK A01 T02800157  RH  047%=      5-min Rain = 0
KDO2 060709Z 17010KT 28/16 A2995 RMK A01 T02800157  RH  047%=      5-min Rain = 0
KDO2 060710Z 17009KT 28/16 A2995 RMK A01 T02810157  RH  047%=      5-min Rain = 0
KDO2 060711Z 16011KT 28/16 A2995 RMK A01 T02800157  RH  047%=      5-min Rain = 0
KDO2 060712Z 17011KT 28/16 A2995 RMK A01 T02800158  RH  047%=      5-min Rain = 0
KDO2 060713Z 16010KT 28/16 A2995 RMK A01 T02800158  RH  047%=      5-min Rain = 0
KDO2 060714Z 17010KT 28/16 A2995 RMK A01 T02800158  RH  048%=      5-min Rain = 0
KDO2 060715Z 16010KT 28/16 A2995 RMK A01 T02790158  RH  048%=      5-min Rain = 0
KDO2 060716Z 16011KT 28/16 A2995 RMK A01 T02800158  RH  048%=      5-min Rain = 0
KDO2 060717Z 16008KT 28/16 A2995 RMK A01 T02800158  RH  047%=      5-min Rain = 0
KDO2 060718Z 17009G15KT 28/16 A2995 RMK A01 T02800158  RH  048%=      5-min Rain = 0
KDO2 060719Z 17011KT 28/16 A2995 RMK A01 T02790158  RH  048%=      5-min Rain = 0
KDO2 060720Z 17011KT 28/16 A2995 RMK A01 T02800159  RH  048%=      5-min Rain = 0
KDO2 060721Z 17009KT 28/16 A2995 RMK A01 T02800159  RH  048%=      5-min Rain = 0
KDO2 060722Z 17010KT 28/16 A2996 RMK A01 T02790159  RH  048%=      5-min Rain = 0
KDO2 060723Z 17011KT 28/16 A2996 RMK A01 T02790159  RH  048%=      5-min Rain = 0
KDO2 060724Z 17011KT 28/16 A2996 RMK A01 T02790160  RH  048%=      5-min Rain = 0
KDO2 060725Z 17012KT 28/16 A2996 RMK A01 T02790159  RH  048%=      5-min Rain = 0
KDO2 060726Z 17011KT 28/16 A2996 RMK A01 T02790160  RH  048%=      5-min Rain = 0
KDO2 060727Z 16011KT 28/16 A2995 RMK A01 T02790160  RH  048%=      5-min Rain = 0
KDO2 060728Z 17010KT 28/16 A2996 RMK A01 T02790160  RH  048%=      5-min Rain = 0
KDO2 060729Z 16011G17KT 28/16 A2996 RMK A01 T02790160  RH  048%=      5-min Rain = 0
KDO2 060730Z 16014KT 28/16 A2995 RMK A01 T02790161  RH  049%=      5-min Rain = 0
KDO2 060731Z 16011KT 28/16 A2996 RMK A01 T02790161  RH  048%=      5-min Rain = 0
KDO2 060732Z 16008KT 28/16 A2996 RMK A01 T02790161  RH  048%=      5-min Rain = 0
KDO2 060733Z 17010KT 28/16 A2996 RMK A01 T02790161  RH  049%=      5-min Rain = 0
KDO2 060734Z 16010KT 28/16 A2996 RMK A01 T02780161  RH  049%=      5-min Rain = 0
KDO2 060735Z 16011KT 28/16 A2996 RMK A01 T02770161  RH  049%=      5-min Rain = 0
KDO2 060736Z 16010KT 28/16 A2995 RMK A01 T02770161  RH  049%=      5-min Rain = 0
KDO2 060737Z 16010KT 28/16 A2996 RMK A01 T02770161  RH  049%=      5-min Rain = 0
KDO2 060738Z 17011KT 28/16 A2995 RMK A01 T02770161  RH  049%=      5-min Rain = 0
KDO2 060739Z 17011KT 28/16 A2995 RMK A01 T02770162  RH  050%=      5-min Rain = 0
KDO2 060740Z 17013KT 28/16 A2995 RMK A01 T02770162  RH  050%=      5-min Rain = 0
KDO2 060741Z 16012KT 28/16 A2995 RMK A01 T02770162  RH  050%=      5-min Rain = 0
KDO2 060742Z 17011KT 28/16 A2995 RMK A01 T02780162  RH  049%=      5-min Rain = 0
KDO2 060743Z 16012KT 28/16 A2995 RMK A01 T02780162  RH  049%=      5-min Rain = 0
KDO2 060744Z 16012KT 28/16 A2995 RMK A01 T02770163  RH  050%=      5-min Rain = 0
KDO2 060745Z 16010KT 28/16 A2995 RMK A01 T02780163  RH  050%=      5-min Rain = 0
KDO2 060746Z 16009KT 28/16 A2995 RMK A01 T02770162  RH  050%=      5-min Rain = 0
KDO2 060747Z 16010KT 28/16 A2996 RMK A01 T02770162  RH  050%=      5-min Rain = 0
KDO2 060748Z 16009KT 28/16 A2996 RMK A01 T02760163  RH  050%=      5-min Rain = 0
KDO2 060749Z 16011G16KT 28/16 A2996 RMK A01 T02750163  RH  050%=      5-min Rain = 0
KDO2 060750Z 16011KT 28/16 A2996 RMK A01 T02750163  RH  050%=      5-min Rain = 0
KDO2 060751Z 16012KT 28/16 A2996 RMK A01 T02760163  RH  050%=      5-min Rain = 0
KDO2 060752Z 16011KT 28/16 A2996 RMK A01 T02760163  RH  050%=      5-min Rain = 0
KDO2 060753Z 16011KT 28/16 A2996 RMK A01 T02760163  RH  050%=      5-min Rain = 0
KDO2 060754Z 16010KT 28/16 A2996 RMK A01 T02760164  RH  050%=      5-min Rain = 0
KDO2 060755Z 17012KT 28/16 A2996 RMK A01 T02760164  RH  050%=      5-min Rain = 0
KDO2 060756Z 17011KT 28/16 A2996 RMK A01 T02760164  RH  051%=      5-min Rain = 0
KDO2 060757Z 17010KT 28/16 A2996 RMK A01 T02760164  RH  051%=      5-min Rain = 0
KDO2 060758Z 17012G17KT 28/16 A2996 RMK A01 T02750164  RH  051%=      5-min Rain = 0
KDO2 060759Z 16011KT 28/16 A2996 RMK A01 T02750164  RH  051%=      5-min Rain = 0
KDO2 060800Z 17010KT 28/16 A2996 RMK A01 T02760164  RH  051%=      5-min Rain = 0
KDO2 060801Z 18009KT 28/17 A2996 RMK A01 T02760165  RH  051%=      5-min Rain = 0
KDO2 060802Z 17012KT 28/17 A2996 RMK A01 T02750165  RH  051%=      5-min Rain = 0
KDO2 060803Z 17011KT 28/17 A2996 RMK A01 T02750165  RH  051%=      5-min Rain = 0
KDO2 060804Z 18011KT 28/17 A2996 RMK A01 T02750165  RH  051%=      5-min Rain = 0
KDO2 060805Z 17011KT 27/17 A2996 RMK A01 T02740165  RH  051%=      5-min Rain = 0
KDO2 060806Z 17011KT 27/17 A2996 RMK A01 T02740165  RH  051%=      5-min Rain = 0
KDO2 060807Z 17009KT 27/17 A2996 RMK A01 T02740165  RH  051%=      5-min Rain = 0
KDO2 060808Z 18011KT 27/17 A2996 RMK A01 T02740165  RH  051%=      5-min Rain = 0
KDO2 060809Z 17012KT 27/17 A2996 RMK A01 T02740166  RH  051%=      5-min Rain = 0
KDO2 060810Z 18010KT 28/17 A2996 RMK A01 T02750166  RH  051%=      5-min Rain = 0
KDO2 060811Z 18010KT 28/17 A2996 RMK A01 T02750166  RH  052%=      5-min Rain = 0
KDO2 060812Z 17012KT 27/17 A2996 RMK A01 T02740166  RH  052%=      5-min Rain = 0
KDO2 060813Z 18012KT 27/17 A2996 RMK A01 T02740166  RH  052%=      5-min Rain = 0
KDO2 060814Z 17012KT 27/17 A2996 RMK A01 T02740166  RH  052%=      5-min Rain = 0
KDO2 060815Z 17011G17KT 28/17 A2996 RMK A01 T02750167  RH  052%=      5-min Rain = 0
KDO2 060816Z 17011KT 28/17 A2996 RMK A01 T02750167  RH  052%=      5-min Rain = 0
KDO2 060817Z 17012KT 28/17 A2996 RMK A01 T02750167  RH  052%=      5-min Rain = 0
KDO2 060818Z 17013KT 28/17 A2996 RMK A01 T02750167  RH  052%=      5-min Rain = 0
KDO2 060819Z 17012KT 28/17 A2996 RMK A01 T02750167  RH  052%=      5-min Rain = 0
KDO2 060820Z 17010KT 28/17 A2996 RMK A01 T02750167  RH  052%=      5-min Rain = 0
KDO2 060821Z 17011KT 28/17 A2996 RMK A01 T02750167  RH  052%=      5-min Rain = 0
KDO2 060822Z 18010KT 27/17 A2996 RMK A01 T02740167  RH  052%=      5-min Rain = 0
KDO2 060823Z 18010KT 27/17 A2996 RMK A01 T02740167  RH  052%=      5-min Rain = 0
KDO2 060824Z 17009KT 27/17 A2996 RMK A01 T02730167  RH  052%=      5-min Rain = 0
KDO2 060825Z 17009KT 27/17 A2996 RMK A01 T02730167  RH  052%=      5-min Rain = 0
KDO2 060826Z 17011KT 27/17 A2996 RMK A01 T02730167  RH  052%=      5-min Rain = 0
KDO2 060827Z 17013KT 27/17 A2996 RMK A01 T02730167  RH  053%=      5-min Rain = 0
KDO2 060828Z 17013KT 27/17 A2996 RMK A01 T02720167  RH  053%=      5-min Rain = 0
KDO2 060829Z 17011KT 27/17 A2996 RMK A01 T02720167  RH  053%=      5-min Rain = 0
KDO2 060830Z 17012KT 27/17 A2996 RMK A01 T02720167  RH  053%=      5-min Rain = 0
KDO2 060831Z 17011KT 27/17 A2996 RMK A01 T02730167  RH  053%=      5-min Rain = 0
KDO2 060832Z 17012KT 27/17 A2996 RMK A01 T02720167  RH  053%=      5-min Rain = 0
KDO2 060833Z 16008KT 27/17 A2996 RMK A01 T02730168  RH  053%=      5-min Rain = 0
KDO2 060834Z 17011KT 27/17 A2996 RMK A01 T02720167  RH  053%=      5-min Rain = 0
KDO2 060835Z 17015KT 27/17 A2996 RMK A01 T02710168  RH  053%=      5-min Rain = 0
KDO2 060836Z 17015G20KT 27/17 A2996 RMK A01 T02710169  RH  053%=      5-min Rain = 0
KDO2 060837Z 17015G21KT 27/17 A2996 RMK A01 T02720169  RH  053%=      5-min Rain = 0
KDO2 060838Z 16013KT 27/17 A2996 RMK A01 T02720169  RH  053%=      5-min Rain = 0
KDO2 060839Z 16014KT 27/17 A2996 RMK A01 T02730169  RH  053%=      5-min Rain = 0
KDO2 060840Z 17012KT 27/17 A2996 RMK A01 T02720169  RH  053%=      5-min Rain = 0
KDO2 060841Z 16010G15KT 27/17 A2996 RMK A01 T02720169  RH  053%=      5-min Rain = 0
KDO2 060842Z 16011KT 27/17 A2996 RMK A01 T02720169  RH  053%=      5-min Rain = 0
KDO2 060843Z 16009KT 27/17 A2996 RMK A01 T02710169  RH  054%=      5-min Rain = 0
KDO2 060844Z 16010KT 27/17 A2996 RMK A01 T02700169  RH  054%=      5-min Rain = 0
KDO2 060845Z 16009KT 27/17 A2996 RMK A01 T02690169  RH  054%=      5-min Rain = 0
KDO2 060846Z 16008KT 27/17 A2996 RMK A01 T02690169  RH  054%=      5-min Rain = 0
KDO2 060847Z 15009KT 27/17 A2996 RMK A01 T02680169  RH  055%=      5-min Rain = 0
KDO2 060848Z 16009KT 27/17 A2996 RMK A01 T02680169  RH  055%=      5-min Rain = 0
KDO2 060849Z 17014KT 27/17 A2996 RMK A01 T02670170  RH  055%=      5-min Rain = 0
KDO2 060850Z 17011KT 27/17 A2996 RMK A01 T02680170  RH  055%=      5-min Rain = 0
KDO2 060851Z 17012KT 27/17 A2996 RMK A01 T02680171  RH  055%=      5-min Rain = 0
KDO2 060852Z 17012KT 27/17 A2996 RMK A01 T02680171  RH  055%=      5-min Rain = 0
KDO2 060853Z 17013KT 27/17 A2996 RMK A01 T02680172  RH  056%=      5-min Rain = 0
KDO2 060854Z 17011KT 27/17 A2996 RMK A01 T02680172  RH  056%=      5-min Rain = 0
KDO2 060855Z 17010KT 27/17 A2996 RMK A01 T02680172  RH  056%=      5-min Rain = 0
KDO2 060856Z 17011KT 27/17 A2996 RMK A01 T02680172  RH  056%=      5-min Rain = 0
KDO2 060857Z 17011KT 27/17 A2996 RMK A01 T02680173  RH  056%=      5-min Rain = 0
KDO2 060858Z 17011KT 27/17 A2997 RMK A01 T02680173  RH  056%=      5-min Rain = 0
KDO2 060859Z 17012KT 27/17 A2997 RMK A01 T02670173  RH  056%=      5-min Rain = 0
KDO2 060900Z 17010KT 27/17 A2997 RMK A01 T02680173  RH  056%=      5-min Rain = 0
KDO2 060901Z 16012KT 27/17 A2997 RMK A01 T02670173  RH  056%=      5-min Rain = 0
KDO2 060902Z 17012KT 27/17 A2997 RMK A01 T02670174  RH  056%=      5-min Rain = 0
KDO2 060903Z 17010KT 27/17 A2997 RMK A01 T02670174  RH  056%=      5-min Rain = 0
KDO2 060904Z 17010KT 27/17 A2997 RMK A01 T02670174  RH  056%=      5-min Rain = 0
KDO2 060905Z 17010KT 27/17 A2997 RMK A01 T02660173  RH  057%=      5-min Rain = 0
KDO2 060906Z 17013KT 27/17 A2996 RMK A01 T02660174  RH  057%=      5-min Rain = 0
KDO2 060907Z 17012KT 27/18 A2996 RMK A01 T02660175  RH  057%=      5-min Rain = 0
KDO2 060908Z 17011KT 27/18 A2997 RMK A01 T02670175  RH  057%=      5-min Rain = 0
KDO2 060909Z 17013KT 27/18 A2996 RMK A01 T02670175  RH  057%=      5-min Rain = 0
KDO2 060910Z 18012KT 27/18 A2996 RMK A01 T02670175  RH  057%=      5-min Rain = 0
KDO2 060911Z 17010KT 27/18 A2996 RMK A01 T02670175  RH  057%=      5-min Rain = 0
KDO2 060912Z 17013KT 27/18 A2996 RMK A01 T02660176  RH  057%=      5-min Rain = 0
KDO2 060913Z 18015KT 27/18 A2996 RMK A01 T02660177  RH  058%=      5-min Rain = 0
KDO2 060914Z 17013KT 27/18 A2996 RMK A01 T02660177  RH  058%=      5-min Rain = 0
KDO2 060915Z 18011KT 27/18 A2996 RMK A01 T02670177  RH  058%=      5-min Rain = 0
KDO2 060916Z 18010KT 27/18 A2996 RMK A01 T02660178  RH  058%=      5-min Rain = 0
KDO2 060917Z 17011KT 27/18 A2996 RMK A01 T02650177  RH  059%=      5-min Rain = 0
KDO2 060918Z 17013KT 27/18 A2997 RMK A01 T02650178  RH  059%=      5-min Rain = 0
KDO2 060919Z 17011KT 27/18 A2997 RMK A01 T02650179  RH  059%=      5-min Rain = 0
KDO2 060920Z 17013KT 27/18 A2997 RMK A01 T02650179  RH  059%=      5-min Rain = 0
KDO2 060921Z 17013KT 26/18 A2997 RMK A01 T02640179  RH  060%=      5-min Rain = 0
KDO2 060922Z 17013KT 26/18 A2997 RMK A01 T02640179  RH  060%=      5-min Rain = 0
KDO2 060923Z 17011KT 26/18 A2997 RMK A01 T02640180  RH  060%=      5-min Rain = 0
KDO2 060924Z 17011KT 26/18 A2997 RMK A01 T02640180  RH  060%=      5-min Rain = 0
KDO2 060925Z 17010KT 26/18 A2997 RMK A01 T02640180  RH  060%=      5-min Rain = 0
KDO2 060926Z 17010KT 26/18 A2997 RMK A01 T02630180  RH  060%=      5-min Rain = 0
KDO2 060927Z 17010KT 26/18 A2997 RMK A01 T02630181  RH  061%=      5-min Rain = 0
KDO2 060928Z 18010KT 26/18 A2997 RMK A01 T02630181  RH  061%=      5-min Rain = 0
KDO2 060929Z 18009KT 26/18 A2997 RMK A01 T02620181  RH  061%=      5-min Rain = 0
KDO2 060930Z 18010G15KT 26/18 A2997 RMK A01 T02620181  RH  061%=      5-min Rain = 0
KDO2 060931Z 17013KT 26/18 A2997 RMK A01 T02620183  RH  062%=      5-min Rain = 0
KDO2 060932Z 17011KT 26/18 A2997 RMK A01 T02620183  RH  062%=      5-min Rain = 0
KDO2 060933Z 17011KT 26/18 A2997 RMK A01 T02620183  RH  062%=      5-min Rain = 0
KDO2 060934Z 17012KT 26/18 A2997 RMK A01 T02620183  RH  062%=      5-min Rain = 0
KDO2 060935Z 17012KT 26/18 A2997 RMK A01 T02620184  RH  062%=      5-min Rain = 0
KDO2 060936Z 17012KT 26/18 A2997 RMK A01 T02630184  RH  062%=      5-min Rain = 0
KDO2 060937Z 17012KT 26/18 A2997 RMK A01 T02630184  RH  062%=      5-min Rain = 0
KDO2 060938Z 17010KT 26/18 A2997 RMK A01 T02630184  RH  062%=      5-min Rain = 0
KDO2 060939Z 18008KT 26/18 A2997 RMK A01 T02630184  RH  062%=      5-min Rain = 0
KDO2 060940Z 18009KT 26/18 A2997 RMK A01 T02620184  RH  062%=      5-min Rain = 0
KDO2 060941Z 18010KT 26/18 A2997 RMK A01 T02620184  RH  062%=      5-min Rain = 0
KDO2 060942Z 18012KT 26/19 A2997 RMK A01 T02610185  RH  063%=      5-min Rain = 0
KDO2 060943Z 17010KT 26/19 A2997 RMK A01 T02610186  RH  063%=      5-min Rain = 0
KDO2 060944Z 17011KT 26/19 A2997 RMK A01 T02610186  RH  063%=      5-min Rain = 0
KDO2 060945Z 16011KT 26/19 A2997 RMK A01 T02610186  RH  063%=      5-min Rain = 0
KDO2 060946Z 17010KT 26/19 A2997 RMK A01 T02610186  RH  063%=      5-min Rain = 0
KDO2 060947Z 17009KT 26/19 A2997 RMK A01 T02610186  RH  063%=      5-min Rain = 0
KDO2 060948Z 17010KT 26/19 A2997 RMK A01 T02610186  RH  063%=      5-min Rain = 0
KDO2 060949Z 17009KT 26/19 A2997 RMK A01 T02610186  RH  063%=      5-min Rain = 0
KDO2 060950Z 18009KT 26/19 A2997 RMK A01 T02600185  RH  063%=      5-min Rain = 0
KDO2 060951Z 17010KT 26/19 A2997 RMK A01 T02590186  RH  064%=      5-min Rain = 0
KDO2 060952Z 17011KT 26/19 A2997 RMK A01 T02590187  RH  064%=      5-min Rain = 0
KDO2 060953Z 17008KT 26/19 A2997 RMK A01 T02590187  RH  064%=      5-min Rain = 0
KDO2 060954Z 17008KT 26/19 A2997 RMK A01 T02590187  RH  064%=      5-min Rain = 0
KDO2 060955Z 17007KT 26/19 A2997 RMK A01 T02590187  RH  065%=      5-min Rain = 0
KDO2 060956Z 17006KT 26/19 A2997 RMK A01 T02590187  RH  065%=      5-min Rain = 0
KDO2 060957Z 17006KT 26/19 A2997 RMK A01 T02580187  RH  065%=      5-min Rain = 0
KDO2 060958Z 16006KT 26/19 A2997 RMK A01 T02570186  RH  065%=      5-min Rain = 0
KDO2 060959Z 17007KT 26/19 A2997 RMK A01 T02560186  RH  065%=      5-min Rain = 0
KDO2 061000Z 17008KT 26/19 A2997 RMK A01 T02560187  RH  066%=      5-min Rain = 0
KDO2 061001Z 18010KT 26/19 A2997 RMK A01 T02560187  RH  066%=      5-min Rain = 0
KDO2 061002Z 18011KT 26/19 A2997 RMK A01 T02560188  RH  066%=      5-min Rain = 0
KDO2 061003Z 18010KT 26/19 A2997 RMK A01 T02570189  RH  066%=      5-min Rain = 0
KDO2 061004Z 17009KT 26/19 A2997 RMK A01 T02580189  RH  066%=      5-min Rain = 0
KDO2 061005Z 17009KT 26/19 A2997 RMK A01 T02590189  RH  066%=      5-min Rain = 0
KDO2 061006Z 17010KT 26/19 A2997 RMK A01 T02580189  RH  066%=      5-min Rain = 0
KDO2 061007Z 17009KT 26/19 A2997 RMK A01 T02580189  RH  066%=      5-min Rain = 0
KDO2 061008Z 17009KT 26/19 A2997 RMK A01 T02570189  RH  066%=      5-min Rain = 0
KDO2 061009Z 17008KT 26/19 A2997 RMK A01 T02570189  RH  066%=      5-min Rain = 0
KDO2 061010Z 17009KT 26/19 A2997 RMK A01 T02570189  RH  066%=      5-min Rain = 0
KDO2 061011Z 17009KT 26/19 A2997 RMK A01 T02570189  RH  066%=      5-min Rain = 0
KDO2 061012Z 17007KT 26/19 A2997 RMK A01 T02560189  RH  066%=      5-min Rain = 0
KDO2 061013Z 18006KT 26/19 A2997 RMK A01 T02560189  RH  066%=      5-min Rain = 0
KDO2 061014Z 17008KT 26/19 A2997 RMK A01 T02560189  RH  067%=      5-min Rain = 0
KDO2 061015Z 17011KT 26/19 A2997 RMK A01 T02560190  RH  067%=      5-min Rain = 0
KDO2 061016Z 17010KT 26/19 A2997 RMK A01 T02560190  RH  067%=      5-min Rain = 0
KDO2 061017Z 17011KT 26/19 A2997 RMK A01 T02560191  RH  067%=      5-min Rain = 0
KDO2 061018Z 17008KT 26/19 A2997 RMK A01 T02560192  RH  067%=      5-min Rain = 0
KDO2 061019Z 16009KT 26/19 A2997 RMK A01 T02570192  RH  067%=      5-min Rain = 0
KDO2 061020Z 16006KT 26/19 A2997 RMK A01 T02560192  RH  067%=      5-min Rain = 0
KDO2 061021Z 16008KT 26/19 A2997 RMK A01 T02560191  RH  067%=      5-min Rain = 0
KDO2 061022Z 16007KT 26/19 A2997 RMK A01 T02560191  RH  067%=      5-min Rain = 0
KDO2 061023Z 17008KT 26/19 A2997 RMK A01 T02550190  RH  068%=      5-min Rain = 0
KDO2 061024Z 17007KT 25/19 A2997 RMK A01 T02540191  RH  068%=      5-min Rain = 0
KDO2 061025Z 17006KT 25/19 A2997 RMK A01 T02540191  RH  068%=      5-min Rain = 0
KDO2 061026Z 16007KT 25/19 A2997 RMK A01 T02530191  RH  068%=      5-min Rain = 0
KDO2 061027Z 16007KT 25/19 A2997 RMK A01 T02530192  RH  069%=      5-min Rain = 0
KDO2 061028Z 16008KT 25/19 A2997 RMK A01 T02530192  RH  069%=      5-min Rain = 0
KDO2 061029Z 17009KT 25/19 A2997 RMK A01 T02530192  RH  069%=      5-min Rain = 0
KDO2 061030Z 17008KT 25/19 A2997 RMK A01 T02530192  RH  069%=      5-min Rain = 0
KDO2 061031Z 17006KT 25/19 A2997 RMK A01 T02540193  RH  069%=      5-min Rain = 0
KDO2 061032Z 17008KT 25/19 A2997 RMK A01 T02540193  RH  069%=      5-min Rain = 0
KDO2 061033Z 17008KT 25/19 A2997 RMK A01 T02540193  RH  069%=      5-min Rain = 0
KDO2 061034Z 17011KT 25/19 A2997 RMK A01 T02540194  RH  069%=      5-min Rain = 0
KDO2 061035Z 16009KT 25/20 A2997 RMK A01 T02540195  RH  069%=      5-min Rain = 0
KDO2 061036Z 15007KT 26/20 A2997 RMK A01 T02550195  RH  069%=      5-min Rain = 0
KDO2 061037Z 16007KT 26/20 A2997 RMK A01 T02550195  RH  069%=      5-min Rain = 0
KDO2 061038Z 17008KT 26/19 A2997 RMK A01 T02550194  RH  069%=      5-min Rain = 0
KDO2 061039Z 16008KT 25/20 A2997 RMK A01 T02540195  RH  070%=      5-min Rain = 0
KDO2 061040Z 16007KT 25/19 A2997 RMK A01 T02530194  RH  070%=      5-min Rain = 0
KDO2 061041Z 15005KT 25/19 A2997 RMK A01 T02530194  RH  070%=      5-min Rain = 0
KDO2 061042Z 15004KT 25/19 A2997 RMK A01 T02530194  RH  070%=      5-min Rain = 0
KDO2 061043Z 16006KT 25/19 A2997 RMK A01 T02520193  RH  070%=      5-min Rain = 0
KDO2 061044Z 16007KT 25/20 A2997 RMK A01 T02510195  RH  071%=      5-min Rain = 0
KDO2 061045Z 16006KT 25/20 A2997 RMK A01 T02510195  RH  071%=      5-min Rain = 0
KDO2 061046Z 15005KT 25/20 A2997 RMK A01 T02510195  RH  071%=      5-min Rain = 0
KDO2 061047Z 17005KT 25/20 A2997 RMK A01 T02510195  RH  071%=      5-min Rain = 0
KDO2 061048Z 16005KT 25/20 A2997 RMK A01 T02510196  RH  071%=      5-min Rain = 0
KDO2 061049Z 17005KT 25/20 A2998 RMK A01 T02510196  RH  071%=      5-min Rain = 0
KDO2 061050Z 17004KT 25/20 A2998 RMK A01 T02510195  RH  071%=      5-min Rain = 0
KDO2 061051Z 17003KT 25/20 A2998 RMK A01 T02510195  RH  071%=      5-min Rain = 0
KDO2 061052Z 16004KT 25/20 A2998 RMK A01 T02500195  RH  072%=      5-min Rain = 0
KDO2 061053Z 16004KT 25/20 A2998 RMK A01 T02490196  RH  072%=      5-min Rain = 0
KDO2 061054Z 16005KT 25/20 A2998 RMK A01 T02490195  RH  072%=      5-min Rain = 0
KDO2 061055Z 16006KT 25/20 A2998 RMK A01 T02490196  RH  073%=      5-min Rain = 0
KDO2 061056Z 15005KT 25/20 A2998 RMK A01 T02480196  RH  073%=      5-min Rain = 0
KDO2 061057Z 17005KT 25/20 A2998 RMK A01 T02490196  RH  072%=      5-min Rain = 0
KDO2 061058Z 16005KT 25/20 A2998 RMK A01 T02490196  RH  073%=      5-min Rain = 0
KDO2 061059Z 15005KT 25/20 A2998 RMK A01 T02480196  RH  073%=      5-min Rain = 0
KDO2 061100Z 17006KT 25/20 A2998 RMK A01 T02480196  RH  073%=      5-min Rain = 0
KDO2 061101Z 16006KT 25/20 A2998 RMK A01 T02480197  RH  073%=      5-min Rain = 0
KDO2 061102Z 16007KT 25/20 A2998 RMK A01 T02480197  RH  073%=      5-min Rain = 0
KDO2 061103Z 16006KT 25/20 A2998 RMK A01 T02480197  RH  073%=      5-min Rain = 0
KDO2 061104Z 16006KT 25/20 A2998 RMK A01 T02480197  RH  073%=      5-min Rain = 0
KDO2 061105Z 17005KT 25/20 A2998 RMK A01 T02480197  RH  073%=      5-min Rain = 0
KDO2 061106Z 15004KT 25/20 A2998 RMK A01 T02480197  RH  073%=      5-min Rain = 0
KDO2 061107Z 16006KT 25/20 A2998 RMK A01 T02470197  RH  074%=      5-min Rain = 0
KDO2 061108Z 16007KT 25/20 A2998 RMK A01 T02470198  RH  074%=      5-min Rain = 0
KDO2 061109Z 16008KT 25/20 A2998 RMK A01 T02470197  RH  074%=      5-min Rain = 0
KDO2 061110Z 16007KT 25/20 A2998 RMK A01 T02470198  RH  074%=      5-min Rain = 0
KDO2 061111Z 16006KT 25/20 A2998 RMK A01 T02470198  RH  074%=      5-min Rain = 0
KDO2 061112Z 16005KT 25/20 A2998 RMK A01 T02470197  RH  074%=      5-min Rain = 0
KDO2 061113Z 17006KT 25/20 A2998 RMK A01 T02470198  RH  074%=      5-min Rain = 0
KDO2 061114Z 17006KT 25/20 A2998 RMK A01 T02460198  RH  074%=      5-min Rain = 0
KDO2 061115Z 16006KT 25/20 A2998 RMK A01 T02460198  RH  075%=      5-min Rain = 0
KDO2 061116Z 17006KT 25/20 A2998 RMK A01 T02460198  RH  074%=      5-min Rain = 0
KDO2 061117Z 16007KT 25/20 A2998 RMK A01 T02460198  RH  075%=      5-min Rain = 0
KDO2 061118Z 16007KT 25/20 A2998 RMK A01 T02460198  RH  075%=      5-min Rain = 0
KDO2 061119Z 18006KT 25/20 A2998 RMK A01 T02460199  RH  075%=      5-min Rain = 0
KDO2 061120Z 18007KT 25/20 A2998 RMK A01 T02460199  RH  075%=      5-min Rain = 0
KDO2 061121Z 18006KT 25/20 A2999 RMK A01 T02460198  RH  075%=      5-min Rain = 0
KDO2 061122Z 18006KT 25/20 A2999 RMK A01 T02460198  RH  075%=      5-min Rain = 0
KDO2 061123Z 17008KT 25/20 A2999 RMK A01 T02460199  RH  075%=      5-min Rain = 0
KDO2 061124Z 18008KT 25/20 A2999 RMK A01 T02460199  RH  075%=      5-min Rain = 0
KDO2 061125Z 18006KT 25/20 A2999 RMK A01 T02460199  RH  075%=      5-min Rain = 0
KDO2 061126Z 18007KT 25/20 A2999 RMK A01 T02460199  RH  075%=      5-min Rain = 0
KDO2 061127Z 18008KT 25/20 A2999 RMK A01 T02450199  RH  075%=      5-min Rain = 0
KDO2 061128Z 18006KT 25/20 A2999 RMK A01 T02460200  RH  076%=      5-min Rain = 0
KDO2 061129Z 19008KT 25/20 A2999 RMK A01 T02450199  RH  076%=      5-min Rain = 0
KDO2 061130Z 18007KT 25/20 A2999 RMK A01 T02450200  RH  076%=      5-min Rain = 0
KDO2 061131Z 18006KT 25/20 A2999 RMK A01 T02450200  RH  076%=      5-min Rain = 0
KDO2 061132Z 18005KT 25/20 A2999 RMK A01 T02450200  RH  076%=      5-min Rain = 0
KDO2 061133Z 18005KT 25/20 A2999 RMK A01 T02450200  RH  076%=      5-min Rain = 0
KDO2 061134Z 18006KT 24/20 A2999 RMK A01 T02440200  RH  076%=      5-min Rain = 0
KDO2 061135Z 18006KT 24/20 A2999 RMK A01 T02440199  RH  076%=      5-min Rain = 0
KDO2 061136Z 18006KT 24/20 A2999 RMK A01 T02430199  RH  077%=      5-min Rain = 0
KDO2 061137Z 17006KT 24/20 A2999 RMK A01 T02430200  RH  077%=      5-min Rain = 0
KDO2 061138Z 18007KT 24/20 A2999 RMK A01 T02430200  RH  077%=      5-min Rain = 0
KDO2 061139Z 18006KT 24/20 A2999 RMK A01 T02430200  RH  077%=      5-min Rain = 0
KDO2 061140Z 18006KT 24/20 A30 RMK A01 T02430200  RH  077%=      5-min Rain = 0
KDO2 061141Z 18007KT 24/20 A30 RMK A01 T02430200  RH  077%=      5-min Rain = 0
KDO2 061142Z 18008KT 24/20 A30 RMK A01 T02420201  RH  077%=      5-min Rain = 0
KDO2 061143Z 18006KT 24/20 A30 RMK A01 T02420201  RH  077%=      5-min Rain = 0
KDO2 061144Z 19006KT 24/20 A30 RMK A01 T02430201  RH  077%=      5-min Rain = 0
KDO2 061145Z 18006KT 24/20 A30 RMK A01 T02430201  RH  077%=      5-min Rain = 0
KDO2 061146Z 18006KT 24/20 A30 RMK A01 T02430201  RH  077%=      5-min Rain = 0
KDO2 061147Z 18006KT 24/20 A30 RMK A01 T02430201  RH  077%=      5-min Rain = 0
KDO2 061148Z 18009KT 24/20 A30 RMK A01 T02420201  RH  078%=      5-min Rain = 0
KDO2 061149Z 18009KT 24/20 A30 RMK A01 T02430202  RH  078%=      5-min Rain = 0
KDO2 061150Z 18006KT 24/20 A30 RMK A01 T02440202  RH  078%=      5-min Rain = 0
KDO2 061151Z 18006KT 24/20 A30 RMK A01 T02440202  RH  077%=      5-min Rain = 0
KDO2 061152Z 18005KT 24/20 A30 RMK A01 T02440202  RH  077%=      5-min Rain = 0
KDO2 061153Z 18007KT 24/20 A30 RMK A01 T02430201  RH  078%=      5-min Rain = 0
KDO2 061154Z 18006KT 24/20 A30 RMK A01 T02420201  RH  078%=      5-min Rain = 0
KDO2 061155Z 18006KT 24/20 A30 RMK A01 T02420202  RH  078%=      5-min Rain = 0
KDO2 061156Z 18005KT 24/20 A30 RMK A01 T02420202  RH  078%=      5-min Rain = 0
KDO2 061157Z 17005KT 24/20 A30 RMK A01 T02410202  RH  078%=      5-min Rain = 0
KDO2 061158Z 17006KT 24/20 A30 RMK A01 T02410202  RH  079%=      5-min Rain = 0
KDO2 061159Z 18008KT 24/20 A30 RMK A01 T02400202  RH  079%=      5-min Rain = 0
KDO2 061200Z 18007KT 24/20 A30 RMK A01 T02410203  RH  079%=      5-min Rain = 0
KDO2 061201Z 18008KT 24/20 A30 RMK A01 T02410203  RH  079%=      5-min Rain = 0
KDO2 061202Z 18007KT 24/20 A30 RMK A01 T02400203  RH  079%=      5-min Rain = 0
KDO2 061203Z 18006KT 24/20 A30 RMK A01 T02410203  RH  079%=      5-min Rain = 0
KDO2 061204Z 18007KT 24/20 A30 RMK A01 T02410203  RH  079%=      5-min Rain = 0
KDO2 061205Z 18006KT 24/20 A30 RMK A01 T02410203  RH  079%=      5-min Rain = 0
KDO2 061206Z 18007KT 24/20 A30 RMK A01 T02410203  RH  079%=      5-min Rain = 0
KDO2 061207Z 18007KT 24/20 A30 RMK A01 T02410203  RH  079%=      5-min Rain = 0
KDO2 061208Z 18007KT 24/20 A30 RMK A01 T02410203  RH  079%=      5-min Rain = 0
KDO2 061209Z 18006KT 24/20 A30 RMK A01 T02410204  RH  079%=      5-min Rain = 0
KDO2 061210Z 19007KT 24/20 A30 RMK A01 T02410204  RH  079%=      5-min Rain = 0
KDO2 061211Z 19007KT 24/20 A30 RMK A01 T02410204  RH  080%=      5-min Rain = 0
KDO2 061212Z 19008KT 24/20 A30 RMK A01 T02410204  RH  079%=      5-min Rain = 0
KDO2 061213Z 19009KT 24/21 A30 RMK A01 T02420205  RH  080%=      5-min Rain = 0
KDO2 061214Z 19008KT 24/21 A30 RMK A01 T02430205  RH  079%=      5-min Rain = 0
KDO2 061215Z 19007KT 24/21 A30 RMK A01 T02430205  RH  079%=      5-min Rain = 0
KDO2 061216Z 19005KT 24/21 A30 RMK A01 T02430205  RH  079%=      5-min Rain = 0
KDO2 061217Z 19005KT 24/21 A30 RMK A01 T02430205  RH  079%=      5-min Rain = 0
KDO2 061218Z 19006KT 24/21 A30 RMK A01 T02430205  RH  079%=      5-min Rain = 0
KDO2 061219Z 19007KT 24/21 A30 RMK A01 T02430205  RH  079%=      5-min Rain = 0
KDO2 061220Z 19006KT 24/21 A30 RMK A01 T02430205  RH  080%=      5-min Rain = 0
KDO2 061221Z 20006KT 24/21 A30 RMK A01 T02430205  RH  079%=      5-min Rain = 0
KDO2 061222Z 19006KT 24/21 A30 RMK A01 T02430205  RH  079%=      5-min Rain = 0
KDO2 061223Z 20006KT 24/21 A30 RMK A01 T02430205  RH  079%=      5-min Rain = 0
KDO2 061224Z 19007KT 24/21 A30 RMK A01 T02430205  RH  079%=      5-min Rain = 0
KDO2 061225Z 20004KT 24/21 A30 RMK A01 T02430205  RH  079%=      5-min Rain = 0
KDO2 061226Z 20005KT 24/21 A30 RMK A01 T02430205  RH  079%=      5-min Rain = 0
KDO2 061227Z 20005KT 24/21 A30 RMK A01 T02430205  RH  079%=      5-min Rain = 0
KDO2 061228Z 20004KT 24/21 A30 RMK A01 T02430205  RH  080%=      5-min Rain = 0
KDO2 061229Z 20004KT 24/21 A30 RMK A01 T02420205  RH  080%=      5-min Rain = 0
KDO2 061230Z 19004KT 24/21 A30 RMK A01 T02420205  RH  080%=      5-min Rain = 0
KDO2 061231Z 18004KT 24/21 A30 RMK A01 T02420205  RH  080%=      5-min Rain = 0
KDO2 061232Z 18004KT 24/21 A30 RMK A01 T02420205  RH  080%=      5-min Rain = 0
KDO2 061233Z 19004KT 24/21 A30 RMK A01 T02420205  RH  080%=      5-min Rain = 0
KDO2 061234Z 19005KT 24/21 A30 RMK A01 T02410205  RH  080%=      5-min Rain = 0
KDO2 061235Z 19005KT 24/21 A30 RMK A01 T02420205  RH  080%=      5-min Rain = 0
KDO2 061236Z 19004KT 24/21 A30 RMK A01 T02410205  RH  080%=      5-min Rain = 0
KDO2 061237Z 18004KT 24/21 A30 RMK A01 T02410205  RH  080%=      5-min Rain = 0
KDO2 061238Z 18005KT 24/21 A30 RMK A01 T02420206  RH  080%=      5-min Rain = 0
KDO2 061239Z 17005KT 24/21 A30 RMK A01 T02410206  RH  080%=      5-min Rain = 0
KDO2 061240Z 19004KT 24/21 A30 RMK A01 T02410205  RH  080%=      5-min Rain = 0
KDO2 061241Z 18004KT 24/21 A30 RMK A01 T02420206  RH  080%=      5-min Rain = 0
KDO2 061242Z 18004KT 24/21 A30 RMK A01 T02410206  RH  080%=      5-min Rain = 0
KDO2 061243Z 18005KT 24/21 A30 RMK A01 T02410205  RH  080%=      5-min Rain = 0
KDO2 061244Z 19005KT 24/21 A30 RMK A01 T02420206  RH  080%=      5-min Rain = 0
KDO2 061245Z 17006KT 24/21 A30 RMK A01 T02430206  RH  080%=      5-min Rain = 0
KDO2 061246Z 17005KT 24/21 A30 RMK A01 T02430207  RH  080%=      5-min Rain = 0
KDO2 061247Z 17005KT 24/21 A30 RMK A01 T02440206  RH  079%=      5-min Rain = 0
KDO2 061248Z 18005KT 25/21 A30 RMK A01 T02450206  RH  079%=      5-min Rain = 0
KDO2 061249Z 18004KT 25/21 A30 RMK A01 T02450207  RH  079%=      5-min Rain = 0
KDO2 061250Z 19004KT 25/21 A30 RMK A01 T02450206  RH  079%=      5-min Rain = 0
KDO2 061251Z 18004KT 25/21 A30 RMK A01 T02450206  RH  079%=      5-min Rain = 0
KDO2 061252Z 18004KT 25/21 A30 RMK A01 T02460207  RH  079%=      5-min Rain = 0
KDO2 061253Z 18004KT 25/21 A30 RMK A01 T02460207  RH  079%=      5-min Rain = 0
KDO2 061254Z 18005KT 25/21 A30 RMK A01 T02470207  RH  078%=      5-min Rain = 0
KDO2 061255Z 18005KT 25/21 A30 RMK A01 T02470207  RH  078%=      5-min Rain = 0
KDO2 061256Z 18004KT 25/21 A30 RMK A01 T02470207  RH  078%=      5-min Rain = 0
KDO2 061257Z 19005KT 25/21 A30 RMK A01 T02480207  RH  078%=      5-min Rain = 0
KDO2 061258Z 18006KT 25/21 A30 RMK A01 T02480207  RH  078%=      5-min Rain = 0
KDO2 061259Z 19005KT 25/21 A30 RMK A01 T02490208  RH  078%=      5-min Rain = 0
KDO2 061300Z 18006KT 25/21 A30 RMK A01 T02490208  RH  078%=      5-min Rain = 0
KDO2 061301Z 18005KT 25/21 A30 RMK A01 T02500208  RH  077%=      5-min Rain = 0
KDO2 061302Z 17004KT 25/21 A30 RMK A01 T02500208  RH  077%=      5-min Rain = 0
KDO2 061303Z 18004KT 25/21 A30 RMK A01 T02510208  RH  077%=      5-min Rain = 0
KDO2 061304Z 19004KT 25/21 A30 RMK A01 T02510208  RH  077%=      5-min Rain = 0
KDO2 061305Z 19004KT 25/21 A30 RMK A01 T02510208  RH  077%=      5-min Rain = 0
KDO2 061306Z 19005KT 25/21 A30 RMK A01 T02520209  RH  077%=      5-min Rain = 0
KDO2 061307Z 18005KT 25/21 A30 RMK A01 T02520209  RH  077%=      5-min Rain = 0
KDO2 061308Z 18005KT 25/21 A30 RMK A01 T02530209  RH  077%=      5-min Rain = 0
KDO2 061309Z 19005KT 25/21 A30 RMK A01 T02530209  RH  076%=      5-min Rain = 0
KDO2 061310Z 18005KT 25/21 A30 RMK A01 T02540209  RH  076%=      5-min Rain = 0
KDO2 061311Z 18004KT 25/21 A30 RMK A01 T02540209  RH  076%=      5-min Rain = 0
KDO2 061312Z 17005KT 26/21 A30 RMK A01 T02550209  RH  076%=      5-min Rain = 0
KDO2 061313Z 18005KT 26/21 A30 RMK A01 T02550209  RH  076%=      5-min Rain = 0
KDO2 061314Z 17005KT 26/21 A30 RMK A01 T02550209  RH  076%=      5-min Rain = 0
KDO2 061315Z 18006KT 26/21 A30 RMK A01 T02560209  RH  075%=      5-min Rain = 0
KDO2 061316Z 18006KT 26/21 A30 RMK A01 T02570210  RH  075%=      5-min Rain = 0
KDO2 061317Z 18006KT 26/21 A30 RMK A01 T02570210  RH  075%=      5-min Rain = 0
KDO2 061318Z 19006KT 26/21 A30 RMK A01 T02580210  RH  075%=      5-min Rain = 0
KDO2 061319Z 19006KT 26/21 A30 RMK A01 T02580210  RH  075%=      5-min Rain = 0
KDO2 061320Z 17006KT 26/21 A30 RMK A01 T02590210  RH  075%=      5-min Rain = 0
KDO2 061321Z 17007KT 26/21 A30 RMK A01 T02590210  RH  074%=      5-min Rain = 0
KDO2 061322Z 18007KT 26/21 A30 RMK A01 T02590210  RH  074%=      5-min Rain = 0
KDO2 061323Z 18007KT 26/21 A30 RMK A01 T02600210  RH  074%=      5-min Rain = 0
KDO2 061324Z 17005KT 26/21 A30 RMK A01 T02600210  RH  074%=      5-min Rain = 0
KDO2 061325Z 19008KT 26/21 A30 RMK A01 T02600210  RH  074%=      5-min Rain = 0
KDO2 061326Z 18007KT 26/21 A30 RMK A01 T02610210  RH  074%=      5-min Rain = 0
KDO2 061327Z 18006KT 26/21 A30 RMK A01 T02610210  RH  073%=      5-min Rain = 0
KDO2 061328Z 17005KT 26/21 A30 RMK A01 T02620211  RH  074%=      5-min Rain = 0
KDO2 061329Z 17007KT 26/21 A30 RMK A01 T02620211  RH  073%=      5-min Rain = 0
KDO2 061330Z 17007KT 26/21 A30 RMK A01 T02630211  RH  073%=      5-min Rain = 0
KDO2 061331Z 19006KT 26/21 A30 RMK A01 T02640211  RH  073%=      5-min Rain = 0
KDO2 061332Z 19007KT 27/21 A30 RMK A01 T02650211  RH  072%=      5-min Rain = 0
KDO2 061333Z 18007KT 27/21 A30 RMK A01 T02650211  RH  072%=      5-min Rain = 0
KDO2 061334Z 18005KT 27/21 A30 RMK A01 T02650211  RH  072%=      5-min Rain = 0
KDO2 061335Z 16005KT 27/21 A30 RMK A01 T02650211  RH  072%=      5-min Rain = 0
KDO2 061336Z 19007KT 27/21 A30 RMK A01 T02660211  RH  072%=      5-min Rain = 0
KDO2 061337Z 18009KT 27/21 A30 RMK A01 T02660211  RH  072%=      5-min Rain = 0
KDO2 061338Z 18009KT 27/21 A30 RMK A01 T02650211  RH  072%=      5-min Rain = 0
KDO2 061339Z 18008KT 27/21 A30 RMK A01 T02650211  RH  072%=      5-min Rain = 0
KDO2 061340Z 18008KT 27/21 A30 RMK A01 T02660211  RH  072%=      5-min Rain = 0
KDO2 061341Z 19007KT 27/21 A30 RMK A01 T02670211  RH  072%=      5-min Rain = 0
KDO2 061342Z 17005KT 27/21 A30 RMK A01 T02680212  RH  072%=      5-min Rain = 0
KDO2 061343Z 18007KT 27/21 A30 RMK A01 T02690212  RH  071%=      5-min Rain = 0
KDO2 061344Z 18007KT 27/21 A30 RMK A01 T02700212  RH  071%=      5-min Rain = 0
KDO2 061345Z 18009KT 27/21 A30 RMK A01 T02700212  RH  070%=      5-min Rain = 0
KDO2 061346Z 17007KT 27/21 A30 RMK A01 T02710212  RH  070%=      5-min Rain = 0
KDO2 061347Z 17008KT 27/21 A30 RMK A01 T02710212  RH  070%=      5-min Rain = 0
KDO2 061348Z 17008KT 27/21 A30 RMK A01 T02710212  RH  070%=      5-min Rain = 0
KDO2 061349Z 18007KT 27/21 A30 RMK A01 T02710212  RH  070%=      5-min Rain = 0
KDO2 061350Z 19008KT 27/21 A3001 RMK A01 T02720212  RH  070%=      5-min Rain = 0
KDO2 061351Z 17009KT 27/21 A3001 RMK A01 T02740212  RH  069%=      5-min Rain = 0
KDO2 061352Z 19011KT 27/21 A3001 RMK A01 T02740211  RH  069%=      5-min Rain = 0
KDO2 061353Z 18009KT 27/21 A3001 RMK A01 T02730211  RH  069%=      5-min Rain = 0
KDO2 061354Z 19008KT 27/21 A3001 RMK A01 T02730211  RH  069%=      5-min Rain = 0
KDO2 061355Z 18007KT 27/21 A3001 RMK A01 T02730211  RH  069%=      5-min Rain = 0
KDO2 061356Z 19006KT 27/21 A3001 RMK A01 T02740213  RH  069%=      5-min Rain = 0
KDO2 061357Z 19009KT 28/21 A3001 RMK A01 T02760212  RH  068%=      5-min Rain = 0
KDO2 061358Z 18010KT 28/21 A3001 RMK A01 T02760212  RH  068%=      5-min Rain = 0
KDO2 061359Z 19009KT 28/21 A3001 RMK A01 T02760211  RH  068%=      5-min Rain = 0
KDO2 061400Z 18008KT 28/21 A3001 RMK A01 T02750211  RH  068%=      5-min Rain = 0
KDO2 061401Z 19007KT 28/21 A3001 RMK A01 T02750211  RH  068%=      5-min Rain = 0
KDO2 061402Z 18007KT 28/21 A3001 RMK A01 T02760211  RH  068%=      5-min Rain = 0
KDO2 061403Z 19008KT 28/21 A3001 RMK A01 T02770212  RH  067%=      5-min Rain = 0
KDO2 061404Z 19008KT 28/21 A3001 RMK A01 T02780210  RH  067%=      5-min Rain = 0
KDO2 061405Z 19008KT 28/21 A3001 RMK A01 T02790211  RH  067%=      5-min Rain = 0
KDO2 061406Z 19008G13KT 28/21 A3001 RMK A01 T02800212  RH  067%=      5-min Rain = 0
KDO2 061407Z 21009KT 28/21 A3001 RMK A01 T02810211  RH  066%=      5-min Rain = 0
KDO2 061408Z 21008KT 28/21 A3001 RMK A01 T02800211  RH  066%=      5-min Rain = 0
KDO2 061409Z 21009KT 28/21 A3001 RMK A01 T02820212  RH  066%=      5-min Rain = 0
KDO2 061410Z 21008KT 28/21 A3001 RMK A01 T02830212  RH  065%=      5-min Rain = 0
KDO2 061411Z 21007KT 28/21 A3002 RMK A01 T02840212  RH  065%=      5-min Rain = 0
KDO2 061412Z 20007KT 28/21 A3002 RMK A01 T02840210  RH  064%=      5-min Rain = 0
KDO2 061413Z 19007KT 28/21 A3002 RMK A01 T02830210  RH  065%=      5-min Rain = 0
KDO2 061414Z 22007KT 28/21 A3002 RMK A01 T02830212  RH  065%=      5-min Rain = 0
KDO2 061415Z 22007KT 28/21 A3002 RMK A01 T02830211  RH  065%=      5-min Rain = 0
KDO2 061416Z 21010KT 28/21 A3002 RMK A01 T02830210  RH  065%=      5-min Rain = 0
KDO2 061417Z 20009KT 28/21 A3002 RMK A01 T02820209  RH  065%=      5-min Rain = 0
KDO2 061418Z 21009KT 28/21 A3002 RMK A01 T02800210  RH  066%=      5-min Rain = 0
KDO2 061419Z 21010KT 28/21 A3002 RMK A01 T02800210  RH  066%=      5-min Rain = 0
KDO2 061420Z 21010KT 28/21 A3002 RMK A01 T02790209  RH  066%=      5-min Rain = 0
KDO2 061421Z 20008KT 28/21 A3002 RMK A01 T02790209  RH  066%=      5-min Rain = 0
KDO2 061422Z 21009KT 28/21 A3002 RMK A01 T02790210  RH  066%=      5-min Rain = 0
KDO2 061423Z 21008KT 28/21 A3002 RMK A01 T02800210  RH  066%=      5-min Rain = 0
KDO2 061424Z 21009KT 28/21 A3002 RMK A01 T02810210  RH  065%=      5-min Rain = 0
KDO2 061425Z 20011KT 28/21 A3002 RMK A01 T02820210  RH  065%=      5-min Rain = 0
KDO2 061426Z 19012KT 28/21 A3002 RMK A01 T02820209  RH  065%=      5-min Rain = 0
KDO2 061427Z 19010KT 28/21 A3001 RMK A01 T02810208  RH  065%=      5-min Rain = 0
KDO2 061428Z 20010KT 28/21 A3001 RMK A01 T02800208  RH  065%=      5-min Rain = 0
KDO2 061429Z 20012KT 28/21 A3001 RMK A01 T02820208  RH  064%=      5-min Rain = 0
KDO2 061430Z 19010KT 28/21 A3001 RMK A01 T02830207  RH  063%=      5-min Rain = 0
KDO2 061431Z 19011KT 28/21 A3001 RMK A01 T02830207  RH  063%=      5-min Rain = 0
KDO2 061432Z 21009KT 29/21 A3001 RMK A01 T02850208  RH  063%=      5-min Rain = 0
KDO2 061433Z 21011KT 29/21 A3001 RMK A01 T02860209  RH  063%=      5-min Rain = 0
KDO2 061434Z 20009KT 29/21 A3001 RMK A01 T02860209  RH  063%=      5-min Rain = 0
KDO2 061435Z 19012KT 29/21 A3001 RMK A01 T02870209  RH  062%=      5-min Rain = 0
KDO2 061436Z 20013KT 29/21 A3001 RMK A01 T02880208  RH  062%=      5-min Rain = 0
KDO2 061437Z 21012KT 29/21 A3001 RMK A01 T02890208  RH  062%=      5-min Rain = 0
KDO2 061438Z 21011KT 29/21 A3001 RMK A01 T02890209  RH  062%=      5-min Rain = 0
KDO2 061439Z 20009KT 29/21 A3001 RMK A01 T02880209  RH  062%=      5-min Rain = 0
KDO2 061440Z 20012KT 29/21 A3001 RMK A01 T02890208  RH  062%=      5-min Rain = 0
KDO2 061441Z 21011KT 29/21 A3001 RMK A01 T02890208  RH  061%=      5-min Rain = 0
KDO2 061442Z 21011KT 29/21 A3001 RMK A01 T02890208  RH  062%=      5-min Rain = 0
KDO2 061443Z 20009KT 29/21 A3001 RMK A01 T02900208  RH  061%=      5-min Rain = 0
KDO2 061444Z 18009KT 29/21 A3001 RMK A01 T02920209  RH  061%=      5-min Rain = 0
KDO2 061445Z 18009KT 29/21 A3001 RMK A01 T02920208  RH  061%=      5-min Rain = 0
KDO2 061446Z 19010KT 29/21 A3001 RMK A01 T02920209  RH  061%=      5-min Rain = 0
KDO2 061447Z 20010KT 29/21 A3001 RMK A01 T02910208  RH  061%=      5-min Rain = 0
KDO2 061448Z 20008KT 29/21 A3001 RMK A01 T02910209  RH  061%=      5-min Rain = 0
KDO2 061449Z 19009KT 29/21 A3001 RMK A01 T02920209  RH  061%=      5-min Rain = 0
KDO2 061450Z 19011KT 29/21 A3001 RMK A01 T02940209  RH  060%=      5-min Rain = 0
KDO2 061451Z 20011KT 29/21 A3001 RMK A01 T02940209  RH  060%=      5-min Rain = 0
KDO2 061452Z 21009KT 29/21 A3001 RMK A01 T02940208  RH  060%=      5-min Rain = 0
KDO2 061453Z 22009KT 29/21 A3001 RMK A01 T02940208  RH  060%=      5-min Rain = 0
KDO2 061454Z 20011KT 29/21 A3001 RMK A01 T02940208  RH  060%=      5-min Rain = 0
KDO2 061455Z 19011KT 30/21 A3001 RMK A01 T02950208  RH  060%=      5-min Rain = 0
KDO2 061456Z 20009KT 30/21 A3001 RMK A01 T02960207  RH  059%=      5-min Rain = 0
KDO2 061457Z 19009KT 30/21 A3001 RMK A01 T02970207  RH  058%=      5-min Rain = 0
KDO2 061458Z 20008KT 30/21 A3001 RMK A01 T02980209  RH  059%=      5-min Rain = 0
KDO2 061459Z 20007KT 30/21 A3001 RMK A01 T02990210  RH  059%=      5-min Rain = 0
KDO2 061500Z 19011KT 30/21 A3001 RMK A01 T03010208  RH  058%=      5-min Rain = 0
KDO2 061501Z 18012KT 30/21 A3001 RMK A01 T03010207  RH  057%=      5-min Rain = 0
KDO2 061502Z 20010KT 30/21 A3001 RMK A01 T02990207  RH  058%=      5-min Rain = 0
KDO2 061503Z 21009KT 30/21 A3001 RMK A01 T02970207  RH  058%=      5-min Rain = 0
KDO2 061504Z 18010G16KT 30/21 A30 RMK A01 T02960206  RH  058%=      5-min Rain = 0
KDO2 061505Z 20012KT 30/21 A30 RMK A01 T02980206  RH  058%=      5-min Rain = 0
KDO2 061506Z 20012KT 30/21 A30 RMK A01 T03000206  RH  057%=      5-min Rain = 0
KDO2 061507Z 19015KT 30/21 A30 RMK A01 T03000205  RH  057%=      5-min Rain = 0
KDO2 061508Z 19012KT 30/20 A30 RMK A01 T02990204  RH  057%=      5-min Rain = 0
KDO2 061509Z 19012KT 30/21 A30 RMK A01 T02990205  RH  057%=      5-min Rain = 0
KDO2 061510Z 20011KT 30/21 A30 RMK A01 T03000205  RH  057%=      5-min Rain = 0
KDO2 061511Z 20012KT 30/20 A30 RMK A01 T03010204  RH  056%=      5-min Rain = 0
KDO2 061512Z 20009KT 30/20 A30 RMK A01 T02990203  RH  056%=      5-min Rain = 0
KDO2 061513Z 18011G16KT 30/21 A30 RMK A01 T03000205  RH  057%=      5-min Rain = 0
KDO2 061514Z 19013G18KT 30/20 A30 RMK A01 T03010203  RH  056%=      5-min Rain = 0
KDO2 061515Z 18012KT 30/20 A30 RMK A01 T03020203  RH  055%=      5-min Rain = 0
KDO2 061516Z 19015KT 30/20 A30 RMK A01 T03020202  RH  055%=      5-min Rain = 0
KDO2 061517Z 18011KT 30/20 A30 RMK A01 T03030201  RH  055%=      5-min Rain = 0
KDO2 061518Z 18011KT 30/20 A30 RMK A01 T03010201  RH  055%=      5-min Rain = 0
KDO2 061519Z 19012KT 30/20 A30 RMK A01 T03010202  RH  056%=      5-min Rain = 0
KDO2 061520Z 19011KT 30/20 A30 RMK A01 T03010202  RH  055%=      5-min Rain = 0
KDO2 061521Z 18012KT 30/20 A30 RMK A01 T03030203  RH  055%=      5-min Rain = 0
KDO2 061522Z 17013KT 30/20 A30 RMK A01 T03040202  RH  055%=      5-min Rain = 0
KDO2 061523Z 21011KT 30/20 A30 RMK A01 T03030203  RH  055%=      5-min Rain = 0
KDO2 061524Z 21010KT 30/20 A30 RMK A01 T03040202  RH  055%=      5-min Rain = 0
KDO2 061525Z 22010KT 30/20 A30 RMK A01 T03040203  RH  055%=      5-min Rain = 0
KDO2 061526Z 20013KT 31/20 A30 RMK A01 T03050202  RH  054%=      5-min Rain = 0
KDO2 061527Z 18012KT 31/20 A30 RMK A01 T03080202  RH  053%=      5-min Rain = 0
KDO2 061528Z 18013KT 31/20 A30 RMK A01 T03090199  RH  052%=      5-min Rain = 0
KDO2 061529Z 20011KT 31/20 A30 RMK A01 T03080200  RH  053%=      5-min Rain = 0
KDO2 061530Z 20011KT 31/20 A30 RMK A01 T03080201  RH  053%=      5-min Rain = 0
KDO2 061531Z 21008KT 31/20 A30 RMK A01 T03080202  RH  053%=      5-min Rain = 0
KDO2 061532Z 21008KT 31/20 A30 RMK A01 T03080202  RH  053%=      5-min Rain = 0
KDO2 061533Z 19011KT 31/20 A30 RMK A01 T03090203  RH  053%=      5-min Rain = 0
KDO2 061534Z 19011KT 31/20 A30 RMK A01 T03120202  RH  052%=      5-min Rain = 0
KDO2 061535Z 19009KT 31/20 A30 RMK A01 T03120202  RH  052%=      5-min Rain = 0
KDO2 061536Z 19013KT 31/20 A30 RMK A01 T03120201  RH  052%=      5-min Rain = 0
KDO2 061537Z 19014KT 31/20 A30 RMK A01 T03120199  RH  051%=      5-min Rain = 0
KDO2 061538Z 19012KT 31/20 A3001 RMK A01 T03110199  RH  051%=      5-min Rain = 0
KDO2 061539Z 19013KT 31/20 A30 RMK A01 T03110199  RH  052%=      5-min Rain = 0
KDO2 061540Z 18014KT 31/20 A3001 RMK A01 T03110199  RH  051%=      5-min Rain = 0
KDO2 061541Z 19012KT 31/20 A3001 RMK A01 T03110199  RH  051%=      5-min Rain = 0
KDO2 061542Z 17009G14KT 31/20 A30 RMK A01 T03120197  RH  051%=      5-min Rain = 0
KDO2 061543Z 19013KT 31/20 A30 RMK A01 T03140197  RH  050%=      5-min Rain = 0
KDO2 061544Z 21012KT 31/20 A30 RMK A01 T03140200  RH  051%=      5-min Rain = 0
KDO2 061545Z 20009KT 31/20 A30 RMK A01 T03130201  RH  051%=      5-min Rain = 0
KDO2 061546Z 19008KT 31/20 A30 RMK A01 T03130201  RH  052%=      5-min Rain = 0
KDO2 061547Z 21008KT 31/20 A30 RMK A01 T03120201  RH  052%=      5-min Rain = 0
KDO2 061548Z 20008KT 31/20 A30 RMK A01 T03130201  RH  051%=      5-min Rain = 0
KDO2 061549Z 18009KT 31/20 A30 RMK A01 T03140202  RH  051%=      5-min Rain = 0
KDO2 061550Z 18012KT 32/20 A30 RMK A01 T03170199  RH  050%=      5-min Rain = 0
KDO2 061551Z 21010KT 32/20 A30 RMK A01 T03170201  RH  050%=      5-min Rain = 0
KDO2 061552Z 20010KT 32/20 A3001 RMK A01 T03160199  RH  050%=      5-min Rain = 0
KDO2 061553Z 18013G18KT 32/20 A3001 RMK A01 T03160198  RH  050%=      5-min Rain = 0
KDO2 061554Z 19012KT 32/20 A3001 RMK A01 T03170198  RH  049%=      5-min Rain = 0
KDO2 061555Z 19013KT 32/20 A3001 RMK A01 T03180196  RH  049%=      5-min Rain = 0
KDO2 061556Z 18011KT 32/20 A3001 RMK A01 T03150195  RH  049%=      5-min Rain = 0
KDO2 061557Z 18010KT 32/20 A3001 RMK A01 T03160197  RH  049%=      5-min Rain = 0
KDO2 061558Z 18013KT 32/20 A3001 RMK A01 T03180197  RH  049%=      5-min Rain = 0
KDO2 061559Z 21011KT 32/20 A3001 RMK A01 T03200196  RH  048%=      5-min Rain = 0
KDO2 061600Z 19010KT 32/20 A30 RMK A01 T03190197  RH  048%=      5-min Rain = 0
KDO2 061601Z 20010KT 32/20 A30 RMK A01 T03200198  RH  049%=      5-min Rain = 0
KDO2 061602Z 19011KT 32/20 A30 RMK A01 T03220199  RH  048%=      5-min Rain = 0
KDO2 061603Z 19011KT 32/20 A30 RMK A01 T03230199  RH  048%=      5-min Rain = 0
KDO2 061604Z 19009KT 32/20 A30 RMK A01 T03230197  RH  048%=      5-min Rain = 0
KDO2 061605Z 20009G15KT 32/20 A30 RMK A01 T03230199  RH  048%=      5-min Rain = 0
KDO2 061606Z 21012KT 32/20 A30 RMK A01 T03240199  RH  048%=      5-min Rain = 0
KDO2 061607Z 20010KT 32/20 A30 RMK A01 T03220199  RH  048%=      5-min Rain = 0
KDO2 061608Z 19009KT 32/20 A30 RMK A01 T03210198  RH  048%=      5-min Rain = 0
KDO2 061609Z 19009KT 32/20 A30 RMK A01 T03210199  RH  048%=      5-min Rain = 0
KDO2 061610Z 19008KT 32/20 A30 RMK A01 T03230200  RH  048%=      5-min Rain = 0
KDO2 061611Z 17009KT 33/20 A30 RMK A01 T03250195  RH  046%=      5-min Rain = 0
KDO2 061612Z 18009KT 33/19 A30 RMK A01 T03250194  RH  046%=      5-min Rain = 0
KDO2 061613Z 17012KT 33/20 A30 RMK A01 T03250195  RH  046%=      5-min Rain = 0
KDO2 061614Z 18011KT 33/20 A30 RMK A01 T03260197  RH  047%=      5-min Rain = 0
KDO2 061615Z 19010KT 33/20 A30 RMK A01 T03250197  RH  047%=      5-min Rain = 0
KDO2 061616Z 20008KT 32/20 A30 RMK A01 T03220197  RH  048%=      5-min Rain = 0
KDO2 061617Z 21009KT 32/20 A30 RMK A01 T03210198  RH  048%=      5-min Rain = 0
KDO2 061618Z 21011KT 32/20 A30 RMK A01 T03210197  RH  048%=      5-min Rain = 0
KDO2 061619Z 20015KT 33/19 A30 RMK A01 T03250193  RH  045%=      5-min Rain = 0
KDO2 061620Z 21013KT 33/19 A30 RMK A01 T03270191  RH  045%=      5-min Rain = 0
KDO2 061621Z 21014KT 33/19 A30 RMK A01 T03250191  RH  045%=      5-min Rain = 0
KDO2 061622Z 19012KT 32/19 A30 RMK A01 T03240193  RH  046%=      5-min Rain = 0
KDO2 061623Z 17012KT 33/19 A30 RMK A01 T03280194  RH  045%=      5-min Rain = 0
KDO2 061624Z 17010G15KT 33/19 A30 RMK A01 T03270192  RH  045%=      5-min Rain = 0
KDO2 061625Z 19012KT 33/19 A30 RMK A01 T03280192  RH  045%=      5-min Rain = 0
KDO2 061626Z 19012KT 33/19 A30 RMK A01 T03290192  RH  044%=      5-min Rain = 0
KDO2 061627Z 19013KT 33/19 A30 RMK A01 T03290192  RH  044%=      5-min Rain = 0
KDO2 061628Z 19012KT 33/19 A30 RMK A01 T03280189  RH  044%=      5-min Rain = 0
KDO2 061629Z 20013KT 33/19 A30 RMK A01 T03290190  RH  044%=      5-min Rain = 0
KDO2 061630Z 20012KT 33/19 A30 RMK A01 T03290190  RH  044%=      5-min Rain = 0
KDO2 061631Z 19012KT 33/19 A30 RMK A01 T03290190  RH  044%=      5-min Rain = 0
KDO2 061632Z 18009KT 33/19 A30 RMK A01 T03290189  RH  043%=      5-min Rain = 0
KDO2 061633Z 20012KT 33/19 A30 RMK A01 T03280189  RH  044%=      5-min Rain = 0
KDO2 061634Z 20011KT 33/19 A30 RMK A01 T03280191  RH  044%=      5-min Rain = 0
KDO2 061635Z 20010KT 33/19 A30 RMK A01 T03290193  RH  045%=      5-min Rain = 0
KDO2 061636Z 20013KT 33/19 A30 RMK A01 T03300192  RH  044%=      5-min Rain = 0
KDO2 061637Z 19013KT 33/19 A30 RMK A01 T03320191  RH  043%=      5-min Rain = 0
KDO2 061638Z 19013KT 34/19 A30 RMK A01 T03350190  RH  042%=      5-min Rain = 0
KDO2 061639Z 17015KT 33/19 A30 RMK A01 T03340191  RH  043%=      5-min Rain = 0
KDO2 061640Z 17013KT 33/19 A30 RMK A01 T03320192  RH  044%=      5-min Rain = 0
KDO2 061641Z 17013KT 33/19 A30 RMK A01 T03320191  RH  043%=      5-min Rain = 0
KDO2 061642Z 18010KT 33/19 A30 RMK A01 T03310191  RH  044%=      5-min Rain = 0
KDO2 061643Z 18010KT 33/19 A30 RMK A01 T03320190  RH  043%=      5-min Rain = 0
KDO2 061644Z 19014KT 33/19 A30 RMK A01 T03320190  RH  043%=      5-min Rain = 0
KDO2 061645Z 19013KT 33/19 A30 RMK A01 T03320188  RH  043%=      5-min Rain = 0
KDO2 061646Z 20013KT 33/19 A30 RMK A01 T03300188  RH  043%=      5-min Rain = 0
KDO2 061647Z 20011G17KT 33/19 A30 RMK A01 T03300189  RH  043%=      5-min Rain = 0
KDO2 061648Z 19010KT 33/19 A30 RMK A01 T03320189  RH  043%=      5-min Rain = 0
KDO2 061649Z 19012KT 34/19 A30 RMK A01 T03350188  RH  042%=      5-min Rain = 0
KDO2 061650Z 19014KT 34/18 A30 RMK A01 T03360183  RH  040%=      5-min Rain = 0
KDO2 061651Z 18014KT 34/18 A30 RMK A01 T03350184  RH  041%=      5-min Rain = 0
KDO2 061652Z 19011KT 34/19 A30 RMK A01 T03350185  RH  041%=      5-min Rain = 0
KDO2 061653Z 20011KT 33/19 A30 RMK A01 T03330187  RH  042%=      5-min Rain = 0
KDO2 061654Z 21009KT 33/19 A30 RMK A01 T03330187  RH  042%=      5-min Rain = 0
KDO2 061655Z 20009KT 33/19 A30 RMK A01 T03330188  RH  042%=      5-min Rain = 0
KDO2 061656Z 18009G14KT 34/19 A30 RMK A01 T03350185  RH  041%=      5-min Rain = 0
KDO2 061657Z 18013KT 34/19 A30 RMK A01 T03370188  RH  041%=      5-min Rain = 0
KDO2 061658Z 20008KT 34/19 A30 RMK A01 T03360189  RH  042%=      5-min Rain = 0
KDO2 061659Z 18009KT 34/19 A30 RMK A01 T03350188  RH  042%=      5-min Rain = 0
KDO2 061700Z 19010KT 34/19 A30 RMK A01 T03360190  RH  042%=      5-min Rain = 0
KDO2 061701Z 18013KT 34/19 A30 RMK A01 T03400193  RH  042%=      5-min Rain = 0
KDO2 061702Z 18011G16KT 34/19 A30 RMK A01 T03410192  RH  042%=      5-min Rain = 0
KDO2 061703Z 18013KT 34/19 A30 RMK A01 T03400193  RH  042%=      5-min Rain = 0
KDO2 061704Z 19009KT 34/19 A30 RMK A01 T03400192  RH  042%=      5-min Rain = 0
KDO2 061705Z 19006KT 34/19 A30 RMK A01 T03390190  RH  041%=      5-min Rain = 0
KDO2 061706Z 20005G11KT 34/19 A30 RMK A01 T03380191  RH  042%=      5-min Rain = 0
KDO2 061707Z 20009KT 34/19 A30 RMK A01 T03390189  RH  041%=      5-min Rain = 0
KDO2 061708Z 21012G17KT 34/19 A2999 RMK A01 T03390187  RH  041%=      5-min Rain = 0
KDO2 061709Z 21015KT 34/19 A2999 RMK A01 T03400187  RH  040%=      5-min Rain = 0
KDO2 061710Z 21012KT 34/19 A2999 RMK A01 T03420187  RH  040%=      5-min Rain = 0
KDO2 061711Z 20011KT 34/19 A2999 RMK A01 T03440189  RH  040%=      5-min Rain = 0
KDO2 061712Z 20012KT 34/19 A2999 RMK A01 T03420188  RH  040%=      5-min Rain = 0
KDO2 061713Z 20011KT 34/19 A30 RMK A01 T03410185  RH  040%=      5-min Rain = 0
KDO2 061714Z 19008KT 34/18 A30 RMK A01 T03400183  RH  039%=      5-min Rain = 0
KDO2 061715Z 17008KT 34/18 A30 RMK A01 T03410183  RH  039%=      5-min Rain = 0
KDO2 061716Z 18009KT 34/18 A2999 RMK A01 T03410184  RH  040%=      5-min Rain = 0
KDO2 061717Z 19008G13KT 34/19 A2999 RMK A01 T03410186  RH  040%=      5-min Rain = 0
KDO2 061718Z 21012KT 35/19 A2999 RMK A01 T03450185  RH  039%=      5-min Rain = 0
KDO2 061719Z 20012KT 35/19 A2999 RMK A01 T03480186  RH  039%=      5-min Rain = 0
KDO2 061720Z 22009KT 35/19 A2999 RMK A01 T03450186  RH  039%=      5-min Rain = 0
KDO2 061721Z 21011KT 34/18 A2999 RMK A01 T03420184  RH  039%=      5-min Rain = 0
KDO2 061722Z 21012KT 34/19 A2999 RMK A01 T03430185  RH  039%=      5-min Rain = 0
KDO2 061723Z 21011KT 35/19 A2999 RMK A01 T03450185  RH  039%=      5-min Rain = 0
KDO2 061724Z 21008KT 35/19 A2999 RMK A01 T03460185  RH  039%=      5-min Rain = 0
KDO2 061725Z 22010KT 35/18 A2999 RMK A01 T03470182  RH  038%=      5-min Rain = 0
KDO2 061726Z 21013KT 35/18 A2999 RMK A01 T03460183  RH  038%=      5-min Rain = 0
KDO2 061727Z 20009KT 35/19 A2999 RMK A01 T03460185  RH  039%=      5-min Rain = 0
KDO2 061728Z 21006KT 34/19 A2999 RMK A01 T03420185  RH  039%=      5-min Rain = 0
KDO2 061729Z 20005G10KT 34/18 A2999 RMK A01 T03420184  RH  039%=      5-min Rain = 0
KDO2 061730Z 21012KT 34/18 A2999 RMK A01 T03430184  RH  039%=      5-min Rain = 0
KDO2 061731Z 16011G22KT 35/19 A2999 RMK A01 T03470188  RH  039%=      5-min Rain = 0
KDO2 061732Z 17009G19KT 35/19 A2999 RMK A01 T03500188  RH  038%=      5-min Rain = 0
KDO2 061733Z 19014G20KT 35/18 A2999 RMK A01 T03510179  RH  036%=      5-min Rain = 0
KDO2 061734Z 18009KT 35/18 A2999 RMK A01 T03510175  RH  035%=      5-min Rain = 0
KDO2 061735Z 18010KT 35/18 A2999 RMK A01 T03530176  RH  035%=      5-min Rain = 0
KDO2 061736Z 16012KT 36/18 A2999 RMK A01 T03570180  RH  035%=      5-min Rain = 0
KDO2 061737Z 16009KT 36/18 A2999 RMK A01 T03570182  RH  036%=      5-min Rain = 0
KDO2 061738Z 19009KT 35/18 A2999 RMK A01 T03540184  RH  037%=      5-min Rain = 0
KDO2 061739Z 16011G16KT 35/18 A2999 RMK A01 T03520182  RH  037%=      5-min Rain = 0
KDO2 061740Z 19015G20KT 35/19 A2999 RMK A01 T03510186  RH  038%=      5-min Rain = 0
KDO2 061741Z 22010KT 35/19 A2999 RMK A01 T03530188  RH  038%=      5-min Rain = 0
KDO2 061742Z 19006KT 35/19 A2999 RMK A01 T03530187  RH  038%=      5-min Rain = 0
KDO2 061743Z 19013KT 35/19 A2999 RMK A01 T03540187  RH  037%=      5-min Rain = 0
KDO2 061744Z 18010KT 36/19 A2999 RMK A01 T03580188  RH  037%=      5-min Rain = 0
KDO2 061745Z 18009KT 36/18 A2999 RMK A01 T03590183  RH  036%=      5-min Rain = 0
KDO2 061746Z 15009KT 36/18 A2999 RMK A01 T03550182  RH  036%=      5-min Rain = 0
KDO2 061747Z 16009KT 35/18 A2999 RMK A01 T03540182  RH  036%=      5-min Rain = 0
KDO2 061748Z 17009KT 35/18 A2999 RMK A01 T03530180  RH  036%=      5-min Rain = 0
KDO2 061749Z 16012KT 35/18 A2999 RMK A01 T03540182  RH  036%=      5-min Rain = 0
KDO2 061750Z 17011KT 35/18 A2999 RMK A01 T03540183  RH  037%=      5-min Rain = 0
KDO2 061751Z 17011KT 36/18 A2999 RMK A01 T03550182  RH  036%=      5-min Rain = 0
KDO2 061752Z 18009KT 36/18 A2999 RMK A01 T03560179  RH  035%=      5-min Rain = 0
KDO2 061753Z 18010KT 36/18 A2999 RMK A01 T03560180  RH  035%=      5-min Rain = 0
KDO2 061754Z 18006KT 35/18 A2999 RMK A01 T03530180  RH  036%=      5-min Rain = 0
KDO2 061755Z 16008KT 35/18 A2999 RMK A01 T03510181  RH  037%=      5-min Rain = 0
KDO2 061756Z 15009KT 35/18 A2999 RMK A01 T03530181  RH  036%=      5-min Rain = 0
KDO2 061757Z 19006KT 36/18 A2999 RMK A01 T03560183  RH  036%=      5-min Rain = 0
KDO2 061758Z 17006KT 36/18 A2999 RMK A01 T03570182  RH  036%=      5-min Rain = 0
KDO2 061759Z 22006KT 36/18 A2999 RMK A01 T03560179  RH  035%=      5-min Rain = 0
KDO2 061800Z 20008KT 35/17 A2999 RMK A01 T03540174  RH  034%=      5-min Rain = 0
KDO2 061801Z 17009KT 36/18 A2999 RMK A01 T03570179  RH  035%=      5-min Rain = 0
KDO2 061802Z 19011KT 36/18 A2999 RMK A01 T03590181  RH  035%=      5-min Rain = 0
KDO2 061803Z 16012KT 36/18 A2999 RMK A01 T03590182  RH  035%=      5-min Rain = 0
KDO2 061804Z 16010KT 36/18 A2999 RMK A01 T03600182  RH  035%=      5-min Rain = 0
KDO2 061805Z 16009KT 36/18 A2999 RMK A01 T03580182  RH  035%=      5-min Rain = 0
KDO2 061806Z 16008KT 36/18 A2998 RMK A01 T03580184  RH  036%=      5-min Rain = 0
KDO2 061807Z 16007KT 36/18 A2998 RMK A01 T03600184  RH  036%=      5-min Rain = 0
KDO2 061808Z 14007KT 36/19 A2998 RMK A01 T03630186  RH  035%=      5-min Rain = 0
KDO2 061809Z 12009KT 36/18 A2998 RMK A01 T03610184  RH  035%=      5-min Rain = 0
KDO2 061810Z 15007KT 36/18 A2998 RMK A01 T03570183  RH  036%=      5-min Rain = 0
KDO2 061811Z 17010KT 36/18 A2998 RMK A01 T03560181  RH  036%=      5-min Rain = 0
KDO2 061812Z 15007KT 36/18 A2998 RMK A01 T03570180  RH  035%=      5-min Rain = 0
KDO2 061813Z 15008KT 36/18 A2998 RMK A01 T03620180  RH  034%=      5-min Rain = 0
KDO2 061814Z 18011G16KT 37/18 A2998 RMK A01 T03670183  RH  034%=      5-min Rain = 0
KDO2 061815Z 18009KT 37/18 A2998 RMK A01 T03690182  RH  033%=      5-min Rain = 0
KDO2 061816Z 16006KT 37/18 A2998 RMK A01 T03660179  RH  033%=      5-min Rain = 0
KDO2 061817Z 17009KT 37/18 A2998 RMK A01 T03670177  RH  033%=      5-min Rain = 0
KDO2 061818Z 17011KT 37/17 A2998 RMK A01 T03670173  RH  032%=      5-min Rain = 0
KDO2 061819Z 17013KT 37/17 A2998 RMK A01 T03660171  RH  032%=      5-min Rain = 0
KDO2 061820Z 16013KT 37/17 A2998 RMK A01 T03650174  RH  032%=      5-min Rain = 0
KDO2 061821Z 16011KT 36/18 A2998 RMK A01 T03640179  RH  034%=      5-min Rain = 0
KDO2 061822Z 14010KT 36/18 A2998 RMK A01 T03640179  RH  034%=      5-min Rain = 0
KDO2 061823Z 17009KT 36/18 A2998 RMK A01 T03620180  RH  034%=      5-min Rain = 0
KDO2 061824Z 13009KT 36/18 A2998 RMK A01 T03630180  RH  034%=      5-min Rain = 0
KDO2 061825Z 12010KT 36/18 A2998 RMK A01 T03620179  RH  034%=      5-min Rain = 0
KDO2 061826Z 14007KT 36/18 A2998 RMK A01 T03610178  RH  034%=      5-min Rain = 0
KDO2 061827Z 12007KT 36/18 A2998 RMK A01 T03600181  RH  035%=      5-min Rain = 0
KDO2 061828Z 18006KT 36/18 A2998 RMK A01 T03570180  RH  035%=      5-min Rain = 0
KDO2 061829Z 19007KT 36/18 A2998 RMK A01 T03590180  RH  035%=      5-min Rain = 0
KDO2 061830Z 19009G14KT 36/18 A2998 RMK A01 T03590180  RH  035%=      5-min Rain = 0
KDO2 061831Z 19009KT 36/18 A2998 RMK A01 T03600179  RH  034%=      5-min Rain = 0
KDO2 061832Z 18007KT 36/18 A2997 RMK A01 T03610176  RH  034%=      5-min Rain = 0
KDO2 061833Z 20013G19KT 36/17 A2997 RMK A01 T03620174  RH  033%=      5-min Rain = 0
KDO2 061834Z 18013KT 37/18 A2997 RMK A01 T03650175  RH  033%=      5-min Rain = 0
KDO2 061835Z 17008KT 37/17 A2997 RMK A01 T03650174  RH  033%=      5-min Rain = 0
KDO2 061836Z 19011KT 36/17 A2997 RMK A01 T03630172  RH  032%=      5-min Rain = 0
KDO2 061837Z 20010KT 36/17 A2997 RMK A01 T03630174  RH  033%=      5-min Rain = 0
KDO2 061838Z 20011KT 36/18 A2997 RMK A01 T03620176  RH  033%=      5-min Rain = 0
KDO2 061839Z 18005KT 36/18 A2997 RMK A01 T03610176  RH  034%=      5-min Rain = 0
KDO2 061840Z 20004KT 36/18 A2997 RMK A01 T03590177  RH  034%=      5-min Rain = 0
KDO2 061841Z 18005KT 36/18 A2997 RMK A01 T03630179  RH  034%=      5-min Rain = 0
KDO2 061842Z 18005KT 37/18 A2997 RMK A01 T03670179  RH  033%=      5-min Rain = 0
KDO2 061843Z 21004KT 37/18 A2997 RMK A01 T03690178  RH  033%=      5-min Rain = 0
KDO2 061844Z 18013KT 37/18 A2997 RMK A01 T03700178  RH  032%=      5-min Rain = 0
KDO2 061845Z 17011KT 37/18 A2997 RMK A01 T03710176  RH  032%=      5-min Rain = 0
KDO2 061846Z 16011KT 37/18 A2997 RMK A01 T03700177  RH  032%=      5-min Rain = 0
KDO2 061847Z 15011KT 37/18 A2997 RMK A01 T03720178  RH  032%=      5-min Rain = 0
KDO2 061848Z 16010KT 37/18 A2997 RMK A01 T03720178  RH  032%=      5-min Rain = 0
KDO2 061849Z 16008KT 37/18 A2997 RMK A01 T03730175  RH  031%=      5-min Rain = 0
KDO2 061850Z 16007KT 37/17 A2997 RMK A01 T03690173  RH  031%=      5-min Rain = 0
KDO2 061851Z 16004KT 37/17 A2997 RMK A01 T03660172  RH  032%=      5-min Rain = 0
KDO2 061852Z 11005KT 36/17 A2996 RMK A01 T03640172  RH  032%=      5-min Rain = 0
KDO2 061853Z 17007G12KT 36/17 A2997 RMK A01 T03610173  RH  033%=      5-min Rain = 0
KDO2 061854Z 20012KT 36/17 A2996 RMK A01 T03640174  RH  033%=      5-min Rain = 0
KDO2 061855Z 21011KT 37/17 A2996 RMK A01 T03680173  RH  032%=      5-min Rain = 0
KDO2 061856Z 22007KT 37/17 A2996 RMK A01 T03670171  RH  032%=      5-min Rain = 0
KDO2 061857Z 18006G11KT 37/17 A2996 RMK A01 T03660172  RH  032%=      5-min Rain = 0
KDO2 061858Z 13011KT 37/17 A2996 RMK A01 T03690172  RH  031%=      5-min Rain = 0
KDO2 061859Z 12010G15KT 37/17 A2996 RMK A01 T03710167  RH  030%=      5-min Rain = 0
KDO2 061900Z 13011KT 37/17 A2996 RMK A01 T03690170  RH  031%=      5-min Rain = 0
KDO2 061901Z 14007KT 37/17 A2996 RMK A01 T03680170  RH  031%=      5-min Rain = 0
KDO2 061902Z 13014KT 37/17 A2996 RMK A01 T03660172  RH  032%=      5-min Rain = 0
KDO2 061903Z 13009KT 37/17 A2996 RMK A01 T03670171  RH  032%=      5-min Rain = 0
KDO2 061904Z 11004KT 37/17 A2996 RMK A01 T03660169  RH  031%=      5-min Rain = 0
KDO2 061905Z 16010G15KT 36/17 A2996 RMK A01 T03640169  RH  032%=      5-min Rain = 0
KDO2 061906Z 16011KT 37/17 A2996 RMK A01 T03670169  RH  031%=      5-min Rain = 0
KDO2 061907Z 18012KT 37/17 A2996 RMK A01 T03720168  RH  030%=      5-min Rain = 0
KDO2 061908Z 17011KT 37/17 A2996 RMK A01 T03720165  RH  029%=      5-min Rain = 0
KDO2 061909Z 18011KT 37/17 A2996 RMK A01 T03740166  RH  029%=      5-min Rain = 0
KDO2 061910Z 18012KT 38/17 A2996 RMK A01 T03780166  RH  029%=      5-min Rain = 0
KDO2 061911Z 17015KT 38/16 A2996 RMK A01 T03800162  RH  028%=      5-min Rain = 0
KDO2 061912Z 16013KT 38/16 A2996 RMK A01 T03790160  RH  027%=      5-min Rain = 0
KDO2 061913Z 16012KT 38/16 A2996 RMK A01 T03770158  RH  028%=      5-min Rain = 0
KDO2 061914Z 16014KT 38/16 A2996 RMK A01 T03760158  RH  028%=      5-min Rain = 0
KDO2 061915Z 16011KT 38/16 A2996 RMK A01 T03760161  RH  028%=      5-min Rain = 0
KDO2 061916Z 15009KT 37/16 A2996 RMK A01 T03730160  RH  028%=      5-min Rain = 0
KDO2 061917Z 14009KT 37/16 A2996 RMK A01 T03710160  RH  029%=      5-min Rain = 0
KDO2 061918Z 15010KT 37/16 A2996 RMK A01 T03740164  RH  029%=      5-min Rain = 0
KDO2 061919Z 14010G16KT 38/16 A2996 RMK A01 T03750164  RH  029%=      5-min Rain = 0
KDO2 061920Z 15010KT 38/17 A2996 RMK A01 T03760167  RH  029%=      5-min Rain = 0
KDO2 061921Z 16014KT 38/17 A2996 RMK A01 T03800167  RH  029%=      5-min Rain = 0
KDO2 061922Z 18014KT 38/16 A2996 RMK A01 T03800162  RH  028%=      5-min Rain = 0
KDO2 061923Z 17014KT 38/16 A2996 RMK A01 T03780164  RH  028%=      5-min Rain = 0
KDO2 061924Z 16014KT 38/17 A2996 RMK A01 T03780165  RH  029%=      5-min Rain = 0
KDO2 061925Z 17012KT 38/17 A2996 RMK A01 T03780166  RH  029%=      5-min Rain = 0
KDO2 061926Z 18009KT 38/16 A2996 RMK A01 T03790163  RH  028%=      5-min Rain = 0
KDO2 061927Z 18005KT 37/16 A2995 RMK A01 T03740163  RH  029%=      5-min Rain = 0
KDO2 061928Z 21007KT 37/17 A2995 RMK A01 T03740165  RH  029%=      5-min Rain = 0
KDO2 061929Z 16011KT 38/17 A2995 RMK A01 T03770166  RH  029%=      5-min Rain = 0
KDO2 061930Z 13015KT 38/16 A2995 RMK A01 T03810163  RH  028%=      5-min Rain = 0
KDO2 061931Z 14013KT 38/16 A2995 RMK A01 T03810163  RH  028%=      5-min Rain = 0
KDO2 061932Z 16011G17KT 38/16 A2995 RMK A01 T03810163  RH  028%=      5-min Rain = 0
KDO2 061933Z 16014KT 38/16 A2995 RMK A01 T03800160  RH  027%=      5-min Rain = 0
KDO2 061934Z 17014KT 38/16 A2995 RMK A01 T03780158  RH  027%=      5-min Rain = 0
KDO2 061935Z 15014KT 38/16 A2995 RMK A01 T03780161  RH  028%=      5-min Rain = 0
KDO2 061936Z 13012KT 38/16 A2995 RMK A01 T03780163  RH  028%=      5-min Rain = 0
KDO2 061937Z 13011KT 38/16 A2995 RMK A01 T03750161  RH  028%=      5-min Rain = 0
KDO2 061938Z 14011KT 37/16 A2995 RMK A01 T03740157  RH  028%=      5-min Rain = 0
KDO2 061939Z 11009KT 37/15 A2995 RMK A01 T03740154  RH  027%=      5-min Rain = 0
KDO2 061940Z 14017KT 37/16 A2995 RMK A01 T03730156  RH  028%=      5-min Rain = 0
KDO2 061941Z 13013G18KT 38/15 A2995 RMK A01 T03760154  RH  027%=      5-min Rain = 0
KDO2 061942Z 15009KT 38/16 A2995 RMK A01 T03760155  RH  027%=      5-min Rain = 0
KDO2 061943Z 14008KT 38/15 A2995 RMK A01 T03790153  RH  026%=      5-min Rain = 0
KDO2 061944Z 11012KT 38/16 A2995 RMK A01 T03790158  RH  027%=      5-min Rain = 0
KDO2 061945Z 12011KT 38/16 A2995 RMK A01 T03800159  RH  027%=      5-min Rain = 0
KDO2 061946Z 12012KT 38/16 A2995 RMK A01 T03790160  RH  027%=      5-min Rain = 0
KDO2 061947Z 12010G17KT 38/16 A2995 RMK A01 T03820162  RH  027%=      5-min Rain = 0
KDO2 061948Z 13014KT 38/16 A2995 RMK A01 T03830159  RH  027%=      5-min Rain = 0
KDO2 061949Z 17012KT 38/16 A2995 RMK A01 T03810159  RH  027%=      5-min Rain = 0
KDO2 061950Z 14012G17KT 38/16 A2995 RMK A01 T03830156  RH  026%=      5-min Rain = 0
KDO2 061951Z 14008KT 38/16 A2995 RMK A01 T03790155  RH  027%=      5-min Rain = 0
KDO2 061952Z 16008G14KT 38/15 A2995 RMK A01 T03770153  RH  027%=      5-min Rain = 0
KDO2 061953Z 15008G13KT 38/15 A2995 RMK A01 T03780152  RH  026%=      5-min Rain = 0
KDO2 061954Z 16007KT 38/15 A2995 RMK A01 T03780151  RH  026%=      5-min Rain = 0
KDO2 061955Z 18010KT 38/15 A2995 RMK A01 T03780154  RH  027%=      5-min Rain = 0
KDO2 061956Z 15013KT 38/15 A2995 RMK A01 T03800154  RH  026%=      5-min Rain = 0
KDO2 061957Z 16018KT 38/15 A2995 RMK A01 T03810149  RH  025%=      5-min Rain = 0
KDO2 061958Z 15016KT 38/15 A2995 RMK A01 T03800148  RH  025%=      5-min Rain = 0
KDO2 061959Z 15014KT 38/15 A2995 RMK A01 T03810149  RH  025%=      5-min Rain = 0
KDO2 062000Z 15012KT 38/15 A2995 RMK A01 T03810146  RH  025%=      5-min Rain = 0
KDO2 062001Z 16012KT 38/15 A2995 RMK A01 T03810145  RH  025%=      5-min Rain = 0
KDO2 062002Z 14010KT 38/15 A2995 RMK A01 T03830145  RH  025%=      5-min Rain = 0
KDO2 062003Z 17013KT 39/15 A2995 RMK A01 T03850147  RH  025%=      5-min Rain = 0
KDO2 062004Z 14011G16KT 38/15 A2995 RMK A01 T03840150  RH  025%=      5-min Rain = 0
KDO2 062005Z 12012G17KT 39/15 A2995 RMK A01 T03850147  RH  025%=      5-min Rain = 0
KDO2 062006Z 13016KT 38/15 A2994 RMK A01 T03820148  RH  025%=      5-min Rain = 0
KDO2 062007Z 14012KT 38/15 A2995 RMK A01 T03820151  RH  026%=      5-min Rain = 0
KDO2 062008Z 14010KT 38/15 A2994 RMK A01 T03840149  RH  025%=      5-min Rain = 0
KDO2 062009Z 16007KT 38/15 A2994 RMK A01 T03810149  RH  025%=      5-min Rain = 0
KDO2 062010Z 16012KT 38/15 A2994 RMK A01 T03840151  RH  025%=      5-min Rain = 0
KDO2 062011Z 14017KT 39/15 A2994 RMK A01 T03900151  RH  025%=      5-min Rain = 0
KDO2 062012Z 13014KT 39/15 A2994 RMK A01 T03870151  RH  025%=      5-min Rain = 0
KDO2 062013Z 15018KT 39/15 A2994 RMK A01 T03850149  RH  025%=      5-min Rain = 0
KDO2 062014Z 15016KT 39/14 A2994 RMK A01 T03860142  RH  024%=      5-min Rain = 0
KDO2 062015Z 17017KT 39/14 A2994 RMK A01 T03860142  RH  024%=      5-min Rain = 0
KDO2 062016Z 18014KT 38/14 A2995 RMK A01 T03840142  RH  024%=      5-min Rain = 0
KDO2 062017Z 18011KT 38/14 A2994 RMK A01 T03820144  RH  024%=      5-min Rain = 0
KDO2 062018Z 18010KT 38/15 A2994 RMK A01 T03800146  RH  025%=      5-min Rain = 0
KDO2 062019Z 19007KT 38/15 A2994 RMK A01 T03800145  RH  025%=      5-min Rain = 0
KDO2 062020Z 16008KT 38/14 A2994 RMK A01 T03790144  RH  025%=      5-min Rain = 0
KDO2 062021Z 16010G15KT 38/15 A2994 RMK A01 T03810148  RH  025%=      5-min Rain = 0
KDO2 062022Z 14015KT 39/15 A2994 RMK A01 T03850150  RH  025%=      5-min Rain = 0
KDO2 062023Z 14015KT 38/15 A2994 RMK A01 T03840150  RH  025%=      5-min Rain = 0
KDO2 062024Z 16014KT 38/15 A2994 RMK A01 T03800150  RH  026%=      5-min Rain = 0
KDO2 062025Z 15018KT 38/15 A2994 RMK A01 T03830150  RH  025%=      5-min Rain = 0
KDO2 062026Z 15015G20KT 38/15 A2994 RMK A01 T03830149  RH  025%=      5-min Rain = 0
KDO2 062027Z 13013KT 38/15 A2995 RMK A01 T03830148  RH  025%=      5-min Rain = 0
KDO2 062028Z 14011KT 38/15 A2995 RMK A01 T03810146  RH  025%=      5-min Rain = 0
KDO2 062029Z 14009KT 38/14 A2994 RMK A01 T03780140  RH  024%=      5-min Rain = 0
KDO2 062030Z 16010KT 38/14 A2994 RMK A01 T03800140  RH  024%=      5-min Rain = 0
KDO2 062031Z 14013KT 39/15 A2994 RMK A01 T03850147  RH  025%=      5-min Rain = 0
KDO2 062032Z 14009KT 38/15 A2994 RMK A01 T03840150  RH  025%=      5-min Rain = 0
KDO2 062033Z 14010KT 38/15 A2994 RMK A01 T03830149  RH  025%=      5-min Rain = 0
KDO2 062034Z 18008KT 38/14 A2994 RMK A01 T03810144  RH  025%=      5-min Rain = 0
KDO2 062035Z 14008G13KT 38/15 A2994 RMK A01 T03770145  RH  025%=      5-min Rain = 0
KDO2 062036Z 15011KT 38/15 A2994 RMK A01 T03770151  RH  026%=      5-min Rain = 0
KDO2 062037Z 16015KT 38/15 A2994 RMK A01 T03810151  RH  026%=      5-min Rain = 0
KDO2 062038Z 16014G19KT 38/15 A2994 RMK A01 T03840147  RH  025%=      5-min Rain = 0
KDO2 062039Z 15011KT 39/15 A2994 RMK A01 T03850145  RH  024%=      5-min Rain = 0
KDO2 062040Z 17013G18KT 39/15 A2994 RMK A01 T03850146  RH  024%=      5-min Rain = 0
KDO2 062041Z 16016KT 39/15 A2994 RMK A01 T03860150  RH  025%=      5-min Rain = 0
KDO2 062042Z 16012KT 38/15 A2994 RMK A01 T03840151  RH  025%=      5-min Rain = 0
KDO2 062043Z 17012KT 38/15 A2994 RMK A01 T03840152  RH  025%=      5-min Rain = 0
KDO2 062044Z 15014KT 38/15 A2994 RMK A01 T03840152  RH  025%=      5-min Rain = 0
KDO2 062045Z 16012KT 38/15 A2993 RMK A01 T03840152  RH  025%=      5-min Rain = 0
KDO2 062046Z 18015KT 38/15 A2993 RMK A01 T03840151  RH  025%=      5-min Rain = 0
KDO2 062047Z 18013KT 39/15 A2993 RMK A01 T03860151  RH  025%=      5-min Rain = 0
KDO2 062048Z 18010KT 39/15 A2993 RMK A01 T03870149  RH  025%=      5-min Rain = 0
KDO2 062049Z 18010G15KT 39/15 A2993 RMK A01 T03850148  RH  025%=      5-min Rain = 0
KDO2 062050Z 17016KT 38/15 A2993 RMK A01 T03840148  RH  025%=      5-min Rain = 0
KDO2 062051Z 16017KT 39/15 A2993 RMK A01 T03850149  RH  025%=      5-min Rain = 0
KDO2 062052Z 16012KT 39/15 A2993 RMK A01 T03850150  RH  025%=      5-min Rain = 0
KDO2 062053Z 17011G17KT 39/15 A2993 RMK A01 T03860148  RH  025%=      5-min Rain = 0
KDO2 062054Z 18014KT 39/15 A2993 RMK A01 T03860149  RH  025%=      5-min Rain = 0
KDO2 062055Z 18011KT 39/15 A2993 RMK A01 T03850150  RH  025%=      5-min Rain = 0
KDO2 062056Z 15012KT 39/15 A2993 RMK A01 T03870150  RH  025%=      5-min Rain = 0
KDO2 062057Z 14013G18KT 39/15 A2993 RMK A01 T03880151  RH  025%=      5-min Rain = 0
KDO2 062058Z 14013G22KT 39/15 A2993 RMK A01 T03860149  RH  025%=      5-min Rain = 0
KDO2 062059Z 16018KT 39/15 A2993 RMK A01 T03860148  RH  025%=      5-min Rain = 0
KDO2 062100Z 15014KT 39/15 A2993 RMK A01 T03880147  RH  024%=      5-min Rain = 0
KDO2 062101Z 16013KT 39/15 A2993 RMK A01 T03880146  RH  024%=      5-min Rain = 0
KDO2 062102Z 18012KT 39/15 A2993 RMK A01 T03880146  RH  024%=      5-min Rain = 0
KDO2 062103Z 18013KT 39/15 A2993 RMK A01 T03870145  RH  024%=      5-min Rain = 0
KDO2 062104Z 16009KT 39/14 A2993 RMK A01 T03860144  RH  024%=      5-min Rain = 0
KDO2 062105Z 14012KT 39/15 A2993 RMK A01 T03880147  RH  024%=      5-min Rain = 0
KDO2 062106Z 15009KT 39/15 A2993 RMK A01 T03880146  RH  024%=      5-min Rain = 0
KDO2 062107Z 14009KT 39/15 A2993 RMK A01 T03850146  RH  024%=      5-min Rain = 0
KDO2 062108Z 13009KT 39/15 A2993 RMK A01 T03850148  RH  025%=      5-min Rain = 0
KDO2 062109Z 13010KT 39/15 A2993 RMK A01 T03850148  RH  025%=      5-min Rain = 0
KDO2 062110Z 16013KT 38/15 A2993 RMK A01 T03830147  RH  025%=      5-min Rain = 0
KDO2 062111Z 15012KT 38/15 A2993 RMK A01 T03830146  RH  025%=      5-min Rain = 0
KDO2 062112Z 18012KT 39/15 A2993 RMK A01 T03850147  RH  025%=      5-min Rain = 0
KDO2 062113Z 18010KT 39/15 A2993 RMK A01 T03860146  RH  024%=      5-min Rain = 0
KDO2 062114Z 15009KT 39/15 A2993 RMK A01 T03860146  RH  024%=      5-min Rain = 0
KDO2 062115Z 15009KT 39/15 A2993 RMK A01 T03860146  RH  024%=      5-min Rain = 0
KDO2 062116Z 14010KT 39/15 A2993 RMK A01 T03860146  RH  024%=      5-min Rain = 0
KDO2 062117Z 15014KT 39/15 A2992 RMK A01 T03850147  RH  024%=      5-min Rain = 0
KDO2 062118Z 15014KT 39/15 A2992 RMK A01 T03880146  RH  024%=      5-min Rain = 0
KDO2 062119Z 15013KT 39/15 A2992 RMK A01 T03880146  RH  024%=      5-min Rain = 0
KDO2 062120Z 14014KT 39/15 A2992 RMK A01 T03900147  RH  024%=      5-min Rain = 0
KDO2 062121Z 13014KT 39/15 A2992 RMK A01 T03910148  RH  024%=      5-min Rain = 0
KDO2 062122Z 12010KT 39/15 A2992 RMK A01 T03890146  RH  024%=      5-min Rain = 0
KDO2 062123Z 16008KT 38/15 A2992 RMK A01 T03840146  RH  025%=      5-min Rain = 0
KDO2 062124Z 15011KT 39/15 A2992 RMK A01 T03860147  RH  024%=      5-min Rain = 0
KDO2 062125Z 15009KT 39/15 A2992 RMK A01 T03870148  RH  024%=      5-min Rain = 0
KDO2 062126Z 13011KT 39/15 A2992 RMK A01 T03890149  RH  024%=      5-min Rain = 0
KDO2 062127Z 15013KT 39/15 A2992 RMK A01 T03910149  RH  024%=      5-min Rain = 0
KDO2 062128Z 18012KT 39/14 A2992 RMK A01 T03920144  RH  023%=      5-min Rain = 0
KDO2 062129Z 19011KT 39/14 A2992 RMK A01 T03890142  RH  023%=      5-min Rain = 0
KDO2 062130Z 20017KT 39/14 A2992 RMK A01 T03880143  RH  024%=      5-min Rain = 0
KDO2 062131Z 17015KT 39/14 A2992 RMK A01 T03880144  RH  024%=      5-min Rain = 0
KDO2 062132Z 16014KT 39/15 A2992 RMK A01 T03900145  RH  024%=      5-min Rain = 0
KDO2 062133Z 17013G18KT 39/15 A2992 RMK A01 T03900145  RH  024%=      5-min Rain = 0
KDO2 062134Z 18010KT 39/15 A2992 RMK A01 T03900146  RH  024%=      5-min Rain = 0
KDO2 062135Z 19011KT 39/15 A2992 RMK A01 T03890145  RH  024%=      5-min Rain = 0
KDO2 062136Z 17016KT 39/15 A2992 RMK A01 T03880145  RH  024%=      5-min Rain = 0
KDO2 062137Z 17017KT 39/15 A2992 RMK A01 T03880147  RH  024%=      5-min Rain = 0
KDO2 062138Z 15012KT 39/15 A2992 RMK A01 T03870148  RH  024%=      5-min Rain = 0
KDO2 062139Z 17011KT 39/15 A2992 RMK A01 T03880149  RH  024%=      5-min Rain = 0
KDO2 062140Z 18010KT 39/15 A2992 RMK A01 T03900149  RH  024%=      5-min Rain = 0
KDO2 062141Z 18011KT 39/15 A2992 RMK A01 T03870147  RH  024%=      5-min Rain = 0
KDO2 062142Z 19009KT 38/15 A2992 RMK A01 T03830146  RH  025%=      5-min Rain = 0
KDO2 062143Z 16009KT 38/15 A2992 RMK A01 T03830147  RH  025%=      5-min Rain = 0
KDO2 062144Z 17012KT 39/15 A2992 RMK A01 T03860148  RH  025%=      5-min Rain = 0
KDO2 062145Z 15015KT 39/15 A2992 RMK A01 T03890149  RH  024%=      5-min Rain = 0
KDO2 062146Z 15014KT 39/15 A2992 RMK A01 T03900148  RH  024%=      5-min Rain = 0
KDO2 062147Z 14014KT 39/15 A2991 RMK A01 T03910149  RH  024%=      5-min Rain = 0
KDO2 062148Z 16016KT 39/15 A2991 RMK A01 T03930150  RH  024%=      5-min Rain = 0
KDO2 062149Z 16013KT 39/15 A2991 RMK A01 T03920150  RH  024%=      5-min Rain = 0
KDO2 062150Z 18013KT 39/15 A2992 RMK A01 T03930151  RH  024%=      5-min Rain = 0
KDO2 062151Z 18012G17KT 40/15 A2992 RMK A01 T03950150  RH  024%=      5-min Rain = 0
KDO2 062152Z 18013KT 39/15 A2991 RMK A01 T03940149  RH  024%=      5-min Rain = 0
KDO2 062153Z 19012KT 39/15 A2991 RMK A01 T03920149  RH  024%=      5-min Rain = 0
KDO2 062154Z 17011KT 39/15 A2991 RMK A01 T03890149  RH  024%=      5-min Rain = 0
KDO2 062155Z 17008KT 39/15 A2991 RMK A01 T03880149  RH  024%=      5-min Rain = 0
KDO2 062156Z 17011G17KT 39/15 A2991 RMK A01 T03900151  RH  025%=      5-min Rain = 0
KDO2 062157Z 15015KT 39/15 A2991 RMK A01 T03920148  RH  024%=      5-min Rain = 0
KDO2 062158Z 14014KT 39/15 A2991 RMK A01 T03910145  RH  023%=      5-min Rain = 0
KDO2 062159Z 14010KT 39/15 A2991 RMK A01 T03910145  RH  023%=      5-min Rain = 0
KDO2 062200Z 14014KT 39/15 A2991 RMK A01 T03930145  RH  023%=      5-min Rain = 0
KDO2 062201Z 14014KT 39/15 A2991 RMK A01 T03920145  RH  023%=      5-min Rain = 0
KDO2 062202Z 13009KT 39/14 A2991 RMK A01 T03900144  RH  023%=      5-min Rain = 0
KDO2 062203Z 12010KT 39/14 A2991 RMK A01 T03870143  RH  024%=      5-min Rain = 0
KDO2 062204Z 12008KT 39/14 A2991 RMK A01 T03850144  RH  024%=      5-min Rain = 0
KDO2 062205Z 14016G21KT 39/14 A2991 RMK A01 T03870143  RH  024%=      5-min Rain = 0
KDO2 062206Z 15014G19KT 39/14 A2991 RMK A01 T03890141  RH  023%=      5-min Rain = 0
KDO2 062207Z 15017KT 39/14 A2991 RMK A01 T03900139  RH  023%=      5-min Rain = 0
KDO2 062208Z 14013KT 39/14 A2991 RMK A01 T03880138  RH  023%=      5-min Rain = 0
KDO2 062209Z 15014KT 39/14 A2991 RMK A01 T03870137  RH  023%=      5-min Rain = 0
KDO2 062210Z 15012KT 39/14 A2991 RMK A01 T03860137  RH  023%=      5-min Rain = 0
KDO2 062211Z 15010KT 39/14 A2991 RMK A01 T03860139  RH  023%=      5-min Rain = 0
KDO2 062212Z 18014KT 39/14 A2991 RMK A01 T03880140  RH  023%=      5-min Rain = 0
KDO2 062213Z 17013KT 39/14 A2991 RMK A01 T03880139  RH  023%=      5-min Rain = 0
KDO2 062214Z 14013KT 39/14 A2991 RMK A01 T03860139  RH  023%=      5-min Rain = 0
KDO2 062215Z 15013KT 39/14 A2991 RMK A01 T03870143  RH  024%=      5-min Rain = 0
KDO2 062216Z 17015KT 39/15 A2991 RMK A01 T03900145  RH  024%=      5-min Rain = 0
KDO2 062217Z 17012KT 39/14 A2991 RMK A01 T03880143  RH  024%=      5-min Rain = 0
KDO2 062218Z 17010KT 39/14 A2991 RMK A01 T03860143  RH  024%=      5-min Rain = 0
KDO2 062219Z 17011KT 39/14 A2991 RMK A01 T03850144  RH  024%=      5-min Rain = 0
KDO2 062220Z 17010KT 39/14 A2991 RMK A01 T03860144  RH  024%=      5-min Rain = 0
KDO2 062221Z 16012KT 39/15 A2991 RMK A01 T03860145  RH  024%=      5-min Rain = 0
KDO2 062222Z 16014KT 39/14 A2991 RMK A01 T03860144  RH  024%=      5-min Rain = 0
KDO2 062223Z 17012KT 39/14 A2991 RMK A01 T03870141  RH  023%=      5-min Rain = 0
KDO2 062224Z 18014KT 39/14 A2991 RMK A01 T03860142  RH  024%=      5-min Rain = 0
KDO2 062225Z 18013KT 39/14 A2991 RMK A01 T03870143  RH  024%=      5-min Rain = 0
KDO2 062226Z 19013KT 39/14 A2991 RMK A01 T03850142  RH  024%=      5-min Rain = 0
KDO2 062227Z 19016KT 39/14 A2991 RMK A01 T03850143  RH  024%=      5-min Rain = 0
KDO2 062228Z 15018KT 39/14 A2991 RMK A01 T03860144  RH  024%=      5-min Rain = 0
KDO2 062229Z 13015KT 39/14 A2991 RMK A01 T03860142  RH  024%=      5-min Rain = 0
KDO2 062230Z 14014KT 39/14 A2991 RMK A01 T03850142  RH  024%=      5-min Rain = 0
KDO2 062231Z 13013KT 39/14 A2991 RMK A01 T03850143  RH  024%=      5-min Rain = 0
KDO2 062232Z 13010KT 38/14 A2991 RMK A01 T03840142  RH  024%=      5-min Rain = 0
KDO2 062233Z 17013G20KT 38/14 A2991 RMK A01 T03830144  RH  024%=      5-min Rain = 0
KDO2 062234Z 17019KT 39/15 A2991 RMK A01 T03850147  RH  025%=      5-min Rain = 0
KDO2 062235Z 17015KT 38/15 A2991 RMK A01 T03830146  RH  025%=      5-min Rain = 0
KDO2 062236Z 17012KT 38/15 A2991 RMK A01 T03820146  RH  025%=      5-min Rain = 0
KDO2 062237Z 19015KT 38/15 A2991 RMK A01 T03820147  RH  025%=      5-min Rain = 0
KDO2 062238Z 18018G25KT 38/15 A2991 RMK A01 T03830147  RH  025%=      5-min Rain = 0
KDO2 062239Z 17017KT 38/15 A2991 RMK A01 T03840146  RH  024%=      5-min Rain = 0
KDO2 062240Z 17016KT 38/15 A2991 RMK A01 T03840145  RH  024%=      5-min Rain = 0
KDO2 062241Z 17017KT 38/15 A2991 RMK A01 T03830145  RH  024%=      5-min Rain = 0
KDO2 062242Z 17012G17KT 38/14 A2991 RMK A01 T03800144  RH  025%=      5-min Rain = 0
KDO2 062243Z 17011KT 38/15 A2991 RMK A01 T03800145  RH  025%=      5-min Rain = 0
KDO2 062244Z 17014KT 38/15 A2991 RMK A01 T03820147  RH  025%=      5-min Rain = 0
KDO2 062245Z 18011KT 38/15 A2991 RMK A01 T03830145  RH  024%=      5-min Rain = 0
KDO2 062246Z 19013KT 38/14 A2991 RMK A01 T03820144  RH  024%=      5-min Rain = 0
KDO2 062247Z 16011KT 38/14 A2991 RMK A01 T03800144  RH  025%=      5-min Rain = 0
KDO2 062248Z 16012KT 38/14 A2991 RMK A01 T03820142  RH  024%=      5-min Rain = 0
KDO2 062249Z 16010G17KT 38/14 A2991 RMK A01 T03810139  RH  024%=      5-min Rain = 0
KDO2 062250Z 17014G19KT 38/14 A2991 RMK A01 T03800139  RH  024%=      5-min Rain = 0
KDO2 062251Z 17017G22KT 38/14 A2991 RMK A01 T03820138  RH  024%=      5-min Rain = 0
KDO2 062252Z 16013KT 38/14 A2991 RMK A01 T03820136  RH  023%=      5-min Rain = 0
KDO2 062253Z 16012KT 38/14 A2991 RMK A01 T03820138  RH  024%=      5-min Rain = 0
KDO2 062254Z 17014G20KT 38/14 A2991 RMK A01 T03830139  RH  024%=      5-min Rain = 0
KDO2 062255Z 16016KT 38/14 A2991 RMK A01 T03830140  RH  024%=      5-min Rain = 0
KDO2 062256Z 16013KT 38/14 A2991 RMK A01 T03830141  RH  024%=      5-min Rain = 0
KDO2 062257Z 14012KT 38/14 A2991 RMK A01 T03810140  RH  024%=      5-min Rain = 0
KDO2 062258Z 13015KT 38/14 A2991 RMK A01 T03810139  RH  024%=      5-min Rain = 0
KDO2 062259Z 14013KT 38/14 A2991 RMK A01 T03810139  RH  024%=      5-min Rain = 0
KDO2 062300Z 14009KT 38/14 A2991 RMK A01 T03820139  RH  024%=      5-min Rain = 0
KDO2 062301Z 14010KT 38/14 A2991 RMK A01 T03840140  RH  024%=      5-min Rain = 0
KDO2 062302Z 13010G17KT 39/14 A2991 RMK A01 T03850140  RH  023%=      5-min Rain = 0
KDO2 062303Z 14012KT 39/14 A2991 RMK A01 T03850140  RH  023%=      5-min Rain = 0
KDO2 062304Z 12012KT 38/14 A2991 RMK A01 T03840140  RH  023%=      5-min Rain = 0
KDO2 062305Z 14014G22KT 38/14 A2991 RMK A01 T03840140  RH  024%=      5-min Rain = 0
KDO2 062306Z 15013KT 38/14 A2991 RMK A01 T03830140  RH  024%=      5-min Rain = 0
KDO2 062307Z 18015KT 38/14 A2991 RMK A01 T03820140  RH  024%=      5-min Rain = 0
KDO2 062308Z 17015KT 38/14 A2991 RMK A01 T03820140  RH  024%=      5-min Rain = 0
KDO2 062309Z 15016KT 38/14 A2991 RMK A01 T03810140  RH  024%=      5-min Rain = 0
KDO2 062310Z 16016KT 38/14 A2991 RMK A01 T03800143  RH  025%=      5-min Rain = 0
KDO2 062311Z 16016KT 38/15 A2991 RMK A01 T03790145  RH  025%=      5-min Rain = 0
KDO2 062312Z 16015KT 38/15 A2991 RMK A01 T03780147  RH  026%=      5-min Rain = 0
KDO2 062313Z 14011KT 38/15 A2991 RMK A01 T03770146  RH  025%=      5-min Rain = 0
KDO2 062314Z 15009KT 38/15 A2991 RMK A01 T03770146  RH  025%=      5-min Rain = 0
KDO2 062315Z 17009KT 38/15 A2991 RMK A01 T03780147  RH  025%=      5-min Rain = 0
KDO2 062316Z 16011KT 38/15 A2991 RMK A01 T03800145  RH  025%=      5-min Rain = 0
KDO2 062317Z 14016G25KT 38/14 A299 RMK A01 T03790142  RH  025%=      5-min Rain = 0
KDO2 062318Z 13013KT 38/14 A2991 RMK A01 T03790140  RH  024%=      5-min Rain = 0
KDO2 062319Z 14015KT 38/14 A2991 RMK A01 T03790141  RH  024%=      5-min Rain = 0
KDO2 062320Z 15018KT 38/14 A2991 RMK A01 T03780143  RH  025%=      5-min Rain = 0
KDO2 062321Z 16012KT 38/14 A2991 RMK A01 T03780143  RH  025%=      5-min Rain = 0
KDO2 062322Z 14015KT 38/14 A2991 RMK A01 T03780143  RH  025%=      5-min Rain = 0
KDO2 062323Z 14012KT 38/14 A2991 RMK A01 T03780141  RH  025%=      5-min Rain = 0
KDO2 062324Z 15015KT 38/14 A2991 RMK A01 T03780136  RH  024%=      5-min Rain = 0
KDO2 062325Z 14013KT 38/13 A2991 RMK A01 T03760133  RH  023%=      5-min Rain = 0
KDO2 062326Z 11013KT 38/13 A2991 RMK A01 T03760130  RH  023%=      5-min Rain = 0
KDO2 062327Z 12015KT 38/13 A2991 RMK A01 T03770129  RH  023%=      5-min Rain = 0
KDO2 062328Z 13015KT 38/13 A299 RMK A01 T03780129  RH  023%=      5-min Rain = 0
KDO2 062329Z 14016KT 38/14 A2991 RMK A01 T03770137  RH  024%=      5-min Rain = 0
KDO2 062330Z 15015KT 38/14 A2991 RMK A01 T03770141  RH  025%=      5-min Rain = 0
KDO2 062331Z 16012KT 38/14 A2991 RMK A01 T03760143  RH  025%=      5-min Rain = 0
KDO2 062332Z 17012KT 38/14 A2991 RMK A01 T03750143  RH  025%=      5-min Rain = 0
KDO2 062333Z 16011KT 37/14 A2991 RMK A01 T03740144  RH  025%=      5-min Rain = 0
KDO2 062334Z 15014KT 37/14 A2991 RMK A01 T03740144  RH  025%=      5-min Rain = 0
KDO2 062335Z 14014KT 37/14 A2991 RMK A01 T03740143  RH  025%=      5-min Rain = 0
KDO2 062336Z 14013KT 38/14 A2991 RMK A01 T03750143  RH  025%=      5-min Rain = 0
KDO2 062337Z 14012KT 38/14 A2991 RMK A01 T03750142  RH  025%=      5-min Rain = 0
KDO2 062338Z 14011KT 37/14 A2991 RMK A01 T03740141  RH  025%=      5-min Rain = 0
KDO2 062339Z 14013KT 37/14 A2991 RMK A01 T03740140  RH  025%=      5-min Rain = 0
KDO2 062340Z 14013KT 37/14 A2991 RMK A01 T03730140  RH  025%=      5-min Rain = 0
KDO2 062341Z 13011KT 37/14 A2991 RMK A01 T03730140  RH  025%=      5-min Rain = 0
KDO2 062342Z 13011KT 37/14 A2991 RMK A01 T03740141  RH  025%=      5-min Rain = 0
KDO2 062343Z 14012G17KT 37/14 A299 RMK A01 T03740140  RH  025%=      5-min Rain = 0
KDO2 062344Z 13014KT 37/14 A2991 RMK A01 T03730139  RH  025%=      5-min Rain = 0
KDO2 062345Z 13015KT 37/14 A2991 RMK A01 T03720139  RH  025%=      5-min Rain = 0
KDO2 062346Z 14015KT 37/14 A299 RMK A01 T03710138  RH  025%=      5-min Rain = 0
KDO2 062347Z 14014KT 37/14 A2991 RMK A01 T03710139  RH  025%=      5-min Rain = 0
KDO2 062348Z 15012KT 37/14 A2991 RMK A01 T03710139  RH  025%=      5-min Rain = 0
KDO2 062349Z 15012KT 37/14 A2991 RMK A01 T03730141  RH  025%=      5-min Rain = 0
KDO2 062350Z 14013KT 37/14 A2991 RMK A01 T03730143  RH  026%=      5-min Rain = 0
KDO2 062351Z 16010KT 37/14 A2991 RMK A01 T03720144  RH  026%=      5-min Rain = 0
KDO2 062352Z 15013KT 37/14 A299 RMK A01 T03720144  RH  026%=      5-min Rain = 0
KDO2 062353Z 15013KT 37/14 A2991 RMK A01 T03720142  RH  025%=      5-min Rain = 0
KDO2 062354Z 15017KT 37/14 A2991 RMK A01 T03710140  RH  025%=      5-min Rain = 0
KDO2 062355Z 16016KT 37/14 A299 RMK A01 T03700139  RH  025%=      5-min Rain = 0
KDO2 062356Z 16018KT 37/14 A299 RMK A01 T03680138  RH  025%=      5-min Rain = 0
KDO2 062357Z 15016KT 37/14 A299 RMK A01 T03680139  RH  026%=      5-min Rain = 0
KDO2 062358Z 15014KT 37/14 A299 RMK A01 T03680140  RH  026%=      5-min Rain = 0
KDO2 062359Z 15012KT 37/14 A299 RMK A01 T03690140  RH  026%=      5-min Rain = 0
KDO2 070000Z 14013KT 37/14 A299 RMK A01 T03690140  RH  026%=      5-min Rain = 0
KDO2 070001Z 16014KT 37/14 A299 RMK A01 T03700139  RH  025%=      5-min Rain = 0
KDO2 070002Z 15013KT 37/14 A2991 RMK A01 T03700140  RH  025%=      5-min Rain = 0
KDO2 070003Z 15013KT 37/14 A2991 RMK A01 T03690140  RH  026%=      5-min Rain = 0
KDO2 070004Z 15014KT 37/14 A2991 RMK A01 T03690140  RH  026%=      5-min Rain = 0
KDO2 070005Z 15013KT 37/14 A2991 RMK A01 T03690140  RH  026%=      5-min Rain = 0
KDO2 070006Z 13015G21KT 37/14 A2991 RMK A01 T03680140  RH  026%=      5-min Rain = 0
KDO2 070007Z 13016KT 37/14 A299 RMK A01 T03670140  RH  026%=      5-min Rain = 0
KDO2 070008Z 13014KT 37/14 A2991 RMK A01 T03660140  RH  026%=      5-min Rain = 0
KDO2 070009Z 15013KT 37/14 A2991 RMK A01 T03660140  RH  026%=      5-min Rain = 0
KDO2 070010Z 15015KT 37/14 A2991 RMK A01 T03660140  RH  026%=      5-min Rain = 0
KDO2 070011Z 15012KT 37/14 A2991 RMK A01 T03660141  RH  026%=      5-min Rain = 0
KDO2 070012Z 16011KT 37/14 A2991 RMK A01 T03650142  RH  026%=      5-min Rain = 0
KDO2 070013Z 16012KT 37/14 A2991 RMK A01 T03660142  RH  026%=      5-min Rain = 0
KDO2 070014Z 17013KT 37/14 A2991 RMK A01 T03650142  RH  026%=      5-min Rain = 0
KDO2 070015Z 17014KT 37/14 A2991 RMK A01 T03650141  RH  026%=      5-min Rain = 0
KDO2 070016Z 16012KT 37/14 A2991 RMK A01 T03650142  RH  027%=      5-min Rain = 0
KDO2 070017Z 14012KT 36/14 A2991 RMK A01 T03640141  RH  026%=      5-min Rain = 0
KDO2 070018Z 13013KT 37/14 A2991 RMK A01 T03650140  RH  026%=      5-min Rain = 0
KDO2 070019Z 13014KT 37/14 A2991 RMK A01 T03650139  RH  026%=      5-min Rain = 0
KDO2 070020Z 13011KT 36/14 A2991 RMK A01 T03640139  RH  026%=      5-min Rain = 0
KDO2 070021Z 12012KT 36/14 A2991 RMK A01 T03640139  RH  026%=      5-min Rain = 0
KDO2 070022Z 13013KT 36/14 A2991 RMK A01 T03640138  RH  026%=      5-min Rain = 0
KDO2 070023Z 14013KT 36/14 A2991 RMK A01 T03630137  RH  026%=      5-min Rain = 0
KDO2 070024Z 13013KT 36/14 A2991 RMK A01 T03620138  RH  026%=      5-min Rain = 0
KDO2 070025Z 13012KT 36/14 A2991 RMK A01 T03620137  RH  026%=      5-min Rain = 0
KDO2 070026Z 15009KT 36/14 A2991 RMK A01 T03620138  RH  026%=      5-min Rain = 0
KDO2 070027Z 17012KT 36/14 A2991 RMK A01 T03620138  RH  026%=      5-min Rain = 0
KDO2 070028Z 17012KT 36/14 A2991 RMK A01 T03620140  RH  027%=      5-min Rain = 0
KDO2 070029Z 17011KT 36/14 A2991 RMK A01 T03620142  RH  027%=      5-min Rain = 0
KDO2 070030Z 17014KT 36/14 A2991 RMK A01 T03600142  RH  027%=      5-min Rain = 0
KDO2 070031Z 17013KT 36/14 A2991 RMK A01 T03590141  RH  027%=      5-min Rain = 0
KDO2 070032Z 15010KT 36/14 A2991 RMK A01 T03590140  RH  027%=      5-min Rain = 0
KDO2 070033Z 14012G18KT 36/14 A2991 RMK A01 T03590138  RH  027%=      5-min Rain = 0
KDO2 070034Z 14014KT 36/14 A2991 RMK A01 T03590136  RH  026%=      5-min Rain = 0
KDO2 070035Z 14012KT 36/14 A2991 RMK A01 T03590135  RH  026%=      5-min Rain = 0
KDO2 070036Z 14014KT 36/14 A2991 RMK A01 T03580135  RH  026%=      5-min Rain = 0
KDO2 070037Z 14014KT 36/14 A2991 RMK A01 T03580135  RH  026%=      5-min Rain = 0
KDO2 070038Z 15010KT 36/14 A2991 RMK A01 T03580136  RH  026%=      5-min Rain = 0
KDO2 070039Z 15011KT 36/14 A2991 RMK A01 T03580136  RH  027%=      5-min Rain = 0
KDO2 070040Z 15010KT 36/14 A2991 RMK A01 T03580137  RH  027%=      5-min Rain = 0
KDO2 070041Z 15010KT 36/14 A2991 RMK A01 T03580137  RH  027%=      5-min Rain = 0
KDO2 070042Z 17009KT 36/14 A2991 RMK A01 T03580138  RH  027%=      5-min Rain = 0
KDO2 070043Z 16013KT 36/14 A2991 RMK A01 T03570137  RH  027%=      5-min Rain = 0
KDO2 070044Z 16010KT 36/14 A2991 RMK A01 T03570136  RH  027%=      5-min Rain = 0
KDO2 070045Z 16014KT 36/14 A2991 RMK A01 T03560135  RH  026%=      5-min Rain = 0
KDO2 070046Z 14015KT 36/13 A2991 RMK A01 T03560132  RH  026%=      5-min Rain = 0
KDO2 070047Z 14012KT 36/13 A2991 RMK A01 T03550131  RH  026%=      5-min Rain = 0
KDO2 070048Z 13013KT 36/13 A2991 RMK A01 T03550132  RH  026%=      5-min Rain = 0
KDO2 070049Z 14014KT 36/13 A2991 RMK A01 T03550131  RH  026%=      5-min Rain = 0
KDO2 070050Z 15014KT 35/13 A2991 RMK A01 T03540130  RH  026%=      5-min Rain = 0
KDO2 070051Z 14012KT 35/13 A2991 RMK A01 T03540129  RH  026%=      5-min Rain = 0
KDO2 070052Z 14012KT 35/13 A2991 RMK A01 T03530129  RH  026%=      5-min Rain = 0
KDO2 070053Z 15014KT 35/13 A2992 RMK A01 T03530129  RH  026%=      5-min Rain = 0
KDO2 070054Z 14015KT 35/13 A2992 RMK A01 T03530130  RH  026%=      5-min Rain = 0
KDO2 070055Z 14014KT 35/13 A2992 RMK A01 T03520131  RH  026%=      5-min Rain = 0
KDO2 070056Z 14014KT 35/13 A2992 RMK A01 T03520131  RH  027%=      5-min Rain = 0
KDO2 070057Z 14015KT 35/13 A2992 RMK A01 T03510132  RH  027%=      5-min Rain = 0
KDO2 070058Z 15015KT 35/13 A2992 RMK A01 T03510132  RH  027%=      5-min Rain = 0
KDO2 070059Z 15013KT 35/13 A2992 RMK A01 T03510133  RH  027%=      5-min Rain = 0
KDO2 070100Z 15012KT 35/13 A2992 RMK A01 T03500133  RH  027%=      5-min Rain = 0
KDO2 070101Z 14011KT 35/13 A2992 RMK A01 T03500133  RH  027%=      5-min Rain = 0
KDO2 070102Z 14012KT 35/13 A2992 RMK A01 T03490133  RH  027%=      5-min Rain = 0
KDO2 070103Z 14014KT 35/13 A2992 RMK A01 T03490133  RH  027%=      5-min Rain = 0
KDO2 070104Z 14013KT 35/13 A2992 RMK A01 T03480132  RH  027%=      5-min Rain = 0
KDO2 070105Z 14011KT 35/13 A2992 RMK A01 T03480133  RH  027%=      5-min Rain = 0
KDO2 070106Z 14013KT 35/13 A2992 RMK A01 T03470133  RH  028%=      5-min Rain = 0
KDO2 070107Z 14013KT 35/13 A2992 RMK A01 T03460133  RH  028%=      5-min Rain = 0
KDO2 070108Z 14012KT 35/13 A2992 RMK A01 T03460133  RH  028%=      5-min Rain = 0
KDO2 070109Z 14012KT 35/13 A2992 RMK A01 T03460133  RH  028%=      5-min Rain = 0
KDO2 070110Z 15010KT 35/13 A2992 RMK A01 T03450133  RH  028%=      5-min Rain = 0
KDO2 070111Z 14010KT 35/13 A2992 RMK A01 T03450133  RH  028%=      5-min Rain = 0
KDO2 070112Z 14008KT 34/13 A2992 RMK A01 T03440133  RH  028%=      5-min Rain = 0
KDO2 070113Z 14010KT 34/13 A2992 RMK A01 T03430133  RH  028%=      5-min Rain = 0
KDO2 070114Z 15010KT 34/13 A2992 RMK A01 T03430133  RH  028%=      5-min Rain = 0
KDO2 070115Z 14012KT 34/13 A2992 RMK A01 T03420134  RH  028%=      5-min Rain = 0
KDO2 070116Z 15011KT 34/13 A2992 RMK A01 T03420134  RH  028%=      5-min Rain = 0
KDO2 070117Z 14009KT 34/13 A2992 RMK A01 T03420134  RH  028%=      5-min Rain = 0
KDO2 070118Z 14009KT 34/13 A2992 RMK A01 T03420133  RH  028%=      5-min Rain = 0
KDO2 070119Z 14009KT 34/13 A2992 RMK A01 T03410134  RH  029%=      5-min Rain = 0
KDO2 070120Z 14008KT 34/13 A2992 RMK A01 T03400133  RH  029%=      5-min Rain = 0
KDO2 070121Z 14007KT 34/13 A2992 RMK A01 T03400133  RH  029%=      5-min Rain = 0
KDO2 070122Z 14008KT 34/13 A2992 RMK A01 T03380133  RH  029%=      5-min Rain = 0
KDO2 070123Z 14008KT 34/13 A2993 RMK A01 T03370133  RH  029%=      5-min Rain = 0
KDO2 070124Z 15007KT 34/13 A2993 RMK A01 T03360132  RH  029%=      5-min Rain = 0
KDO2 070125Z 15008KT 34/13 A2993 RMK A01 T03360133  RH  029%=      5-min Rain = 0
KDO2 070126Z 14008KT 34/13 A2993 RMK A01 T03350132  RH  029%=      5-min Rain = 0
KDO2 070127Z 15009KT 34/13 A2993 RMK A01 T03350132  RH  029%=      5-min Rain = 0
KDO2 070128Z 15009KT 34/13 A2993 RMK A01 T03350131  RH  029%=      5-min Rain = 0
KDO2 070129Z 15010KT 34/13 A2993 RMK A01 T03350131  RH  029%=      5-min Rain = 0
KDO2 070130Z 15010KT 34/13 A2993 RMK A01 T03350131  RH  029%=      5-min Rain = 0
KDO2 070131Z 15010KT 34/13 A2993 RMK A01 T03350130  RH  029%=      5-min Rain = 0
KDO2 070132Z 15010KT 34/13 A2993 RMK A01 T03350130  RH  029%=      5-min Rain = 0
KDO2 070133Z 15009KT 34/13 A2993 RMK A01 T03350130  RH  029%=      5-min Rain = 0
KDO2 070134Z 15008KT 34/13 A2993 RMK A01 T03350131  RH  029%=      5-min Rain = 0
KDO2 070135Z 15007KT 33/13 A2993 RMK A01 T03340130  RH  029%=      5-min Rain = 0
KDO2 070136Z 15008KT 33/13 A2993 RMK A01 T03320131  RH  029%=      5-min Rain = 0
KDO2 070137Z 15008KT 33/13 A2993 RMK A01 T03310130  RH  030%=      5-min Rain = 0
KDO2 070138Z 15008KT 33/13 A2993 RMK A01 T03310130  RH  030%=      5-min Rain = 0
KDO2 070139Z 15010KT 33/13 A2993 RMK A01 T03300130  RH  030%=      5-min Rain = 0
KDO2 070140Z 15009KT 33/13 A2993 RMK A01 T03300130  RH  030%=      5-min Rain = 0
KDO2 070141Z 15008KT 33/13 A2993 RMK A01 T03310131  RH  030%=      5-min Rain = 0
KDO2 070142Z 15009KT 33/13 A2993 RMK A01 T03310131  RH  030%=      5-min Rain = 0
KDO2 070143Z 15010KT 33/13 A2993 RMK A01 T03300131  RH  030%=      5-min Rain = 0
KDO2 070144Z 15010KT 33/13 A2993 RMK A01 T03300130  RH  030%=      5-min Rain = 0
KDO2 070145Z 15011KT 33/13 A2993 RMK A01 T03300131  RH  030%=      5-min Rain = 0
KDO2 070146Z 15010KT 33/13 A2993 RMK A01 T03300131  RH  030%=      5-min Rain = 0
KDO2 070147Z 15009KT 33/13 A2993 RMK A01 T03300130  RH  030%=      5-min Rain = 0
KDO2 070148Z 15008KT 33/13 A2993 RMK A01 T03300131  RH  030%=      5-min Rain = 0
KDO2 070149Z 15008KT 33/13 A2993 RMK A01 T03290131  RH  030%=      5-min Rain = 0
KDO2 070150Z 15009KT 33/13 A2993 RMK A01 T03280131  RH  030%=      5-min Rain = 0
KDO2 070151Z 15008KT 33/13 A2994 RMK A01 T03280131  RH  030%=      5-min Rain = 0
KDO2 070152Z 16009KT 33/13 A2994 RMK A01 T03270131  RH  030%=      5-min Rain = 0
KDO2 070153Z 15010KT 33/13 A2994 RMK A01 T03270132  RH  031%=      5-min Rain = 0
KDO2 070154Z 15009KT 33/13 A2994 RMK A01 T03270131  RH  031%=      5-min Rain = 0
KDO2 070155Z 15008KT 33/13 A2994 RMK A01 T03270132  RH  031%=      5-min Rain = 0
KDO2 070156Z 16009KT 33/13 A2994 RMK A01 T03270132  RH  031%=      5-min Rain = 0
KDO2 070157Z 15009KT 33/13 A2994 RMK A01 T03260132  RH  031%=      5-min Rain = 0
KDO2 070158Z 16008KT 33/13 A2994 RMK A01 T03260132  RH  031%=      5-min Rain = 0
KDO2 070159Z 16008KT 33/13 A2994 RMK A01 T03250132  RH  031%=      5-min Rain = 0
KDO2 070200Z 16008KT 32/13 A2994 RMK A01 T03240132  RH  031%=      5-min Rain = 0
KDO2 070201Z 16009KT 32/13 A2994 RMK A01 T03230132  RH  031%=      5-min Rain = 0
KDO2 070202Z 16009KT 32/13 A2994 RMK A01 T03230132  RH  031%=      5-min Rain = 0
KDO2 070203Z 16010KT 32/13 A2994 RMK A01 T03240131  RH  031%=      5-min Rain = 0
KDO2 070204Z 16009KT 32/13 A2994 RMK A01 T03240131  RH  031%=      5-min Rain = 0
KDO2 070205Z 16007KT 32/13 A2994 RMK A01 T03240131  RH  031%=      5-min Rain = 0
KDO2 070206Z 16008KT 32/13 A2994 RMK A01 T03240132  RH  031%=      5-min Rain = 0
KDO2 070207Z 16008KT 32/13 A2994 RMK A01 T03230132  RH  031%=      5-min Rain = 0
KDO2 070208Z 16008KT 32/13 A2994 RMK A01 T03230131  RH  031%=      5-min Rain = 0
KDO2 070209Z 16008KT 32/13 A2994 RMK A01 T03220132  RH  031%=      5-min Rain = 0
KDO2 070210Z 16009KT 32/13 A2994 RMK A01 T03210131  RH  032%=      5-min Rain = 0
KDO2 070211Z 17008KT 32/13 A2994 RMK A01 T03210131  RH  032%=      5-min Rain = 0
KDO2 070212Z 16009KT 32/13 A2994 RMK A01 T03210132  RH  032%=      5-min Rain = 0
KDO2 070213Z 17008KT 32/13 A2994 RMK A01 T03210132  RH  032%=      5-min Rain = 0
KDO2 070214Z 16008KT 32/13 A2994 RMK A01 T03210132  RH  032%=      5-min Rain = 0
KDO2 070215Z 16010KT 32/13 A2994 RMK A01 T03210132  RH  032%=      5-min Rain = 0
KDO2 070216Z 16009KT 32/13 A2994 RMK A01 T03210132  RH  032%=      5-min Rain = 0
KDO2 070217Z 16010KT 32/13 A2995 RMK A01 T03210132  RH  032%=      5-min Rain = 0
KDO2 070218Z 16011KT 32/13 A2995 RMK A01 T03220133  RH  032%=      5-min Rain = 0
KDO2 070219Z 16010KT 32/13 A2995 RMK A01 T03220133  RH  032%=      5-min Rain = 0
KDO2 070220Z 16010KT 32/13 A2995 RMK A01 T03220134  RH  032%=      5-min Rain = 0
KDO2 070221Z 16011KT 32/13 A2995 RMK A01 T03220134  RH  032%=      5-min Rain = 0
KDO2 070222Z 17010G15KT 32/13 A2995 RMK A01 T03220134  RH  032%=      5-min Rain = 0
KDO2 070223Z 16011KT 32/13 A2995 RMK A01 T03220134  RH  032%=      5-min Rain = 0
KDO2 070224Z 17012KT 32/14 A2995 RMK A01 T03220135  RH  032%=      5-min Rain = 0
KDO2 070225Z 16010KT 32/14 A2995 RMK A01 T03220135  RH  032%=      5-min Rain = 0
KDO2 070226Z 16011KT 32/14 A2995 RMK A01 T03210135  RH  032%=      5-min Rain = 0
KDO2 070227Z 17011KT 32/14 A2995 RMK A01 T03210135  RH  032%=      5-min Rain = 0
KDO2 070228Z 16010KT 32/14 A2995 RMK A01 T03210136  RH  032%=      5-min Rain = 0
KDO2 070229Z 16009KT 32/14 A2995 RMK A01 T03210136  RH  032%=      5-min Rain = 0
KDO2 070230Z 16010KT 32/14 A2995 RMK A01 T03200136  RH  033%=      5-min Rain = 0
KDO2 070231Z 16009KT 32/14 A2995 RMK A01 T03200136  RH  033%=      5-min Rain = 0
KDO2 070232Z 16009KT 32/14 A2995 RMK A01 T03190137  RH  033%=      5-min Rain = 0
KDO2 070233Z 16009KT 32/14 A2995 RMK A01 T03180136  RH  033%=      5-min Rain = 0
KDO2 070234Z 16009KT 32/14 A2995 RMK A01 T03180137  RH  033%=      5-min Rain = 0
KDO2 070235Z 16009KT 32/14 A2995 RMK A01 T03170137  RH  033%=      5-min Rain = 0
KDO2 070236Z 16011KT 32/14 A2995 RMK A01 T03170137  RH  033%=      5-min Rain = 0
KDO2 070237Z 16009KT 32/14 A2995 RMK A01 T03170137  RH  033%=      5-min Rain = 0
KDO2 070238Z 16009KT 32/14 A2995 RMK A01 T03180138  RH  034%=      5-min Rain = 0
KDO2 070239Z 16010KT 32/14 A2995 RMK A01 T03170138  RH  034%=      5-min Rain = 0
KDO2 070240Z 16009KT 32/14 A2995 RMK A01 T03170138  RH  034%=      5-min Rain = 0
KDO2 070241Z 16010KT 32/14 A2995 RMK A01 T03160138  RH  034%=      5-min Rain = 0
KDO2 070242Z 16009KT 32/14 A2995 RMK A01 T03160138  RH  034%=      5-min Rain = 0
KDO2 070243Z 16011KT 32/14 A2995 RMK A01 T03160139  RH  034%=      5-min Rain = 0
KDO2 070244Z 16010KT 32/14 A2995 RMK A01 T03160139  RH  034%=      5-min Rain = 0
KDO2 070245Z 16009KT 32/14 A2995 RMK A01 T03160139  RH  034%=      5-min Rain = 0
KDO2 070246Z 16009KT 32/14 A2995 RMK A01 T03160139  RH  034%=      5-min Rain = 0
KDO2 070247Z 16009KT 32/14 A2995 RMK A01 T03150140  RH  034%=      5-min Rain = 0
KDO2 070248Z 15009KT 32/14 A2995 RMK A01 T03150140  RH  034%=      5-min Rain = 0
KDO2 070249Z 16010KT 31/14 A2995 RMK A01 T03140140  RH  035%=      5-min Rain = 0
KDO2 070250Z 15009KT 31/14 A2995 RMK A01 T03140140  RH  035%=      5-min Rain = 0
KDO2 070251Z 16010KT 31/14 A2995 RMK A01 T03140140  RH  035%=      5-min Rain = 0
KDO2 070252Z 16010KT 31/14 A2996 RMK A01 T03140141  RH  035%=      5-min Rain = 0
KDO2 070253Z 16009KT 31/14 A2996 RMK A01 T03140141  RH  035%=      5-min Rain = 0
KDO2 070254Z 16009KT 31/14 A2996 RMK A01 T03140141  RH  035%=      5-min Rain = 0
KDO2 070255Z 16010KT 31/14 A2996 RMK A01 T03130141  RH  035%=      5-min Rain = 0
KDO2 070256Z 16009KT 31/14 A2996 RMK A01 T03120142  RH  035%=      5-min Rain = 0
KDO2 070257Z 16009KT 31/14 A2996 RMK A01 T03120142  RH  036%=      5-min Rain = 0
KDO2 070258Z 16009KT 31/14 A2996 RMK A01 T03120142  RH  036%=      5-min Rain = 0
KDO2 070259Z 16011KT 31/14 A2996 RMK A01 T03120143  RH  036%=      5-min Rain = 0
KDO2 070300Z 15011KT 31/14 A2996 RMK A01 T03120143  RH  036%=      5-min Rain = 0
KDO2 070301Z 16010KT 31/14 A2996 RMK A01 T03130144  RH  036%=      5-min Rain = 0
KDO2 070302Z 15010KT 31/14 A2996 RMK A01 T03130144  RH  036%=      5-min Rain = 0
KDO2 070303Z 16010KT 31/14 A2996 RMK A01 T03130144  RH  036%=      5-min Rain = 0
KDO2 070304Z 16011KT 31/14 A2996 RMK A01 T03120144  RH  036%=      5-min Rain = 0
KDO2 070305Z 16011KT 31/15 A2996 RMK A01 T03120145  RH  036%=      5-min Rain = 0
KDO2 070306Z 16010KT 31/15 A2996 RMK A01 T03120146  RH  036%=      5-min Rain = 0
KDO2 070307Z 15010KT 31/15 A2996 RMK A01 T03120146  RH  036%=      5-min Rain = 0
KDO2 070308Z 16012KT 31/15 A2996 RMK A01 T03120146  RH  037%=      5-min Rain = 0
KDO2 070309Z 16011KT 31/15 A2996 RMK A01 T03120147  RH  037%=      5-min Rain = 0
KDO2 070310Z 16011KT 31/15 A2996 RMK A01 T03120146  RH  037%=      5-min Rain = 0
KDO2 070311Z 16010KT 31/15 A2996 RMK A01 T03120147  RH  037%=      5-min Rain = 0
KDO2 070312Z 16011KT 31/15 A2996 RMK A01 T03120148  RH  037%=      5-min Rain = 0
KDO2 070313Z 16010KT 31/15 A2996 RMK A01 T03110148  RH  037%=      5-min Rain = 0
KDO2 070314Z 16011KT 31/15 A2996 RMK A01 T03110148  RH  037%=      5-min Rain = 0
KDO2 070315Z 16009KT 31/15 A2996 RMK A01 T03110148  RH  037%=      5-min Rain = 0
KDO2 070316Z 16011KT 31/15 A2996 RMK A01 T03100149  RH  038%=      5-min Rain = 0
KDO2 070317Z 16010KT 31/15 A2996 RMK A01 T03100149  RH  038%=      5-min Rain = 0
KDO2 070318Z 16011KT 31/15 A2996 RMK A01 T03100150  RH  038%=      5-min Rain = 0
KDO2 070319Z 16012KT 31/15 A2996 RMK A01 T03100150  RH  038%=      5-min Rain = 0
KDO2 070320Z 16010KT 31/15 A2996 RMK A01 T03100150  RH  038%=      5-min Rain = 0
KDO2 070321Z 16011KT 31/15 A2996 RMK A01 T03100151  RH  038%=      5-min Rain = 0
KDO2 070322Z 16010G15KT 31/15 A2996 RMK A01 T03100151  RH  038%=      5-min Rain = 0
KDO2 070323Z 16012KT 31/15 A2996 RMK A01 T03100151  RH  038%=      5-min Rain = 0
KDO2 070324Z 16011KT 31/15 A2996 RMK A01 T03100151  RH  038%=      5-min Rain = 0
KDO2 070325Z 16009KT 31/15 A2997 RMK A01 T03100151  RH  038%=      5-min Rain = 0
KDO2 070326Z 16010KT 31/15 A2997 RMK A01 T03090152  RH  039%=      5-min Rain = 0
KDO2 070327Z 16009KT 31/15 A2997 RMK A01 T03090152  RH  039%=      5-min Rain = 0
KDO2 070328Z 16009KT 31/15 A2997 RMK A01 T03080152  RH  039%=      5-min Rain = 0
KDO2 070329Z 16010KT 31/15 A2997 RMK A01 T03070152  RH  039%=      5-min Rain = 0
KDO2 070330Z 16010KT 31/15 A2997 RMK A01 T03070152  RH  039%=      5-min Rain = 0
KDO2 070331Z 16010KT 31/15 A2997 RMK A01 T03070152  RH  039%=      5-min Rain = 0
KDO2 070332Z 16010KT 31/15 A2997 RMK A01 T03070153  RH  039%=      5-min Rain = 0
KDO2 070333Z 16011KT 31/15 A2997 RMK A01 T03070153  RH  039%=      5-min Rain = 0
KDO2 070334Z 16010KT 31/15 A2997 RMK A01 T03070153  RH  039%=      5-min Rain = 0
KDO2 070335Z 16010KT 31/15 A2997 RMK A01 T03070153  RH  039%=      5-min Rain = 0
KDO2 070336Z 16010KT 31/15 A2997 RMK A01 T03070154  RH  039%=      5-min Rain = 0
KDO2 070337Z 17009KT 31/15 A2997 RMK A01 T03060153  RH  040%=      5-min Rain = 0
KDO2 070338Z 16010KT 31/15 A2997 RMK A01 T03060154  RH  040%=      5-min Rain = 0
KDO2 070339Z 16010KT 31/15 A2997 RMK A01 T03060154  RH  040%=      5-min Rain = 0
KDO2 070340Z 16010KT 31/15 A2997 RMK A01 T03060154  RH  040%=      5-min Rain = 0
KDO2 070341Z 16012KT 31/15 A2997 RMK A01 T03060154  RH  040%=      5-min Rain = 0
KDO2 070342Z 16013KT 31/15 A2997 RMK A01 T03060154  RH  040%=      5-min Rain = 0
KDO2 070343Z 17012KT 31/16 A2997 RMK A01 T03060155  RH  040%=      5-min Rain = 0
KDO2 070344Z 16010KT 31/16 A2997 RMK A01 T03070155  RH  040%=      5-min Rain = 0
KDO2 070345Z 16009KT 31/16 A2997 RMK A01 T03070155  RH  040%=      5-min Rain = 0
KDO2 070346Z 16010KT 31/16 A2997 RMK A01 T03060155  RH  040%=      5-min Rain = 0
KDO2 070347Z 16009KT 31/16 A2997 RMK A01 T03050155  RH  040%=      5-min Rain = 0
KDO2 070348Z 16012KT 31/16 A2997 RMK A01 T03050155  RH  040%=      5-min Rain = 0
KDO2 070349Z 16009KT 31/16 A2997 RMK A01 T03050155  RH  040%=      5-min Rain = 0
KDO2 070350Z 16011KT 31/16 A2997 RMK A01 T03050155  RH  040%=      5-min Rain = 0
KDO2 070351Z 16011KT 31/16 A2997 RMK A01 T03050156  RH  041%=      5-min Rain = 0
KDO2 070352Z 16010KT 30/16 A2997 RMK A01 T03040156  RH  041%=      5-min Rain = 0
KDO2 070353Z 16011KT 30/16 A2997 RMK A01 T03040156  RH  041%=      5-min Rain = 0
KDO2 070354Z 17009KT 30/16 A2997 RMK A01 T03040156  RH  041%=      5-min Rain = 0
KDO2 070355Z 16008KT 30/16 A2997 RMK A01 T03040156  RH  041%=      5-min Rain = 0
KDO2 070356Z 16010KT 30/16 A2997 RMK A01 T03030156  RH  041%=      5-min Rain = 0
KDO2 070357Z 16011KT 30/16 A2997 RMK A01 T03030156  RH  041%=      5-min Rain = 0
KDO2 070358Z 17010KT 30/16 A2997 RMK A01 T03040157  RH  041%=      5-min Rain = 0
KDO2 070359Z 16009KT 30/16 A2997 RMK A01 T03030156  RH  041%=      5-min Rain = 0
KDO2 070400Z 16009KT 30/16 A2997 RMK A01 T03020156  RH  041%=      5-min Rain = 0
KDO2 070401Z 16009KT 30/16 A2997 RMK A01 T03020156  RH  041%=      5-min Rain = 0
KDO2 070402Z 16011KT 30/16 A2997 RMK A01 T03020156  RH  041%=      5-min Rain = 0
KDO2 070403Z 16010KT 30/16 A2997 RMK A01 T03020157  RH  041%=      5-min Rain = 0
KDO2 070404Z 16009KT 30/16 A2997 RMK A01 T03020157  RH  041%=      5-min Rain = 0
KDO2 070405Z 16010KT 30/16 A2997 RMK A01 T03020157  RH  041%=      5-min Rain = 0
KDO2 070406Z 17008KT 30/16 A2998 RMK A01 T03020157  RH  041%=      5-min Rain = 0
KDO2 070407Z 16010KT 30/16 A2998 RMK A01 T03020157  RH  042%=      5-min Rain = 0
KDO2 070408Z 16010KT 30/16 A2997 RMK A01 T03010157  RH  042%=      5-min Rain = 0
KDO2 070409Z 16009KT 30/16 A2998 RMK A01 T03010157  RH  042%=      5-min Rain = 0
KDO2 070410Z 16009KT 30/16 A2998 RMK A01 T03010157  RH  042%=      5-min Rain = 0
KDO2 070411Z 16009KT 30/16 A2998 RMK A01 T03010157  RH  042%=      5-min Rain = 0
KDO2 070412Z 16009KT 30/16 A2998 RMK A01 T03000158  RH  042%=      5-min Rain = 0
KDO2 070413Z 16009KT 30/16 A2998 RMK A01 T03000158  RH  042%=      5-min Rain = 0
KDO2 070414Z 16008KT 30/16 A2998 RMK A01 T03000158  RH  042%=      5-min Rain = 0
KDO2 070415Z 16009KT 30/16 A2998 RMK A01 T03000158  RH  042%=      5-min Rain = 0
KDO2 070416Z 16008KT 30/16 A2998 RMK A01 T03000158  RH  042%=      5-min Rain = 0
KDO2 070417Z 16008KT 30/16 A2998 RMK A01 T03000158  RH  042%=      5-min Rain = 0
KDO2 070418Z 16009KT 30/16 A2998 RMK A01 T02990158  RH  042%=      5-min Rain = 0
KDO2 070419Z 16009KT 30/16 A2998 RMK A01 T02990158  RH  042%=      5-min Rain = 0
KDO2 070420Z 16009KT 30/16 A2998 RMK A01 T02990158  RH  043%=      5-min Rain = 0
KDO2 070421Z 16008KT 30/16 A2998 RMK A01 T02990158  RH  043%=      5-min Rain = 0
KDO2 070422Z 16008KT 30/16 A2998 RMK A01 T02980158  RH  043%=      5-min Rain = 0
KDO2 070423Z 16008KT 30/16 A2998 RMK A01 T02980158  RH  043%=      5-min Rain = 0
KDO2 070424Z 16009KT 30/16 A2998 RMK A01 T02970158  RH  043%=      5-min Rain = 0
KDO2 070425Z 16008KT 30/16 A2998 RMK A01 T02970159  RH  043%=      5-min Rain = 0
KDO2 070426Z 16008KT 30/16 A2998 RMK A01 T02970158  RH  043%=      5-min Rain = 0
KDO2 070427Z 15008KT 30/16 A2998 RMK A01 T02970159  RH  043%=      5-min Rain = 0
KDO2 070428Z 16008KT 30/16 A2998 RMK A01 T02960158  RH  043%=      5-min Rain = 0
KDO2 070429Z 16009KT 30/16 A2998 RMK A01 T02960158  RH  043%=      5-min Rain = 0
KDO2 070430Z 15008KT 30/16 A2998 RMK A01 T02960158  RH  043%=      5-min Rain = 0
KDO2 070431Z 16008KT 30/16 A2998 RMK A01 T02960159  RH  044%=      5-min Rain = 0
KDO2 070432Z 16008KT 30/16 A2998 RMK A01 T02950159  RH  044%=      5-min Rain = 0
KDO2 070433Z 16009KT 29/16 A2998 RMK A01 T02940159  RH  044%=      5-min Rain = 0
KDO2 070434Z 16008KT 30/16 A2998 RMK A01 T02950159  RH  044%=      5-min Rain = 0
KDO2 070435Z 16009KT 29/16 A2998 RMK A01 T02940159  RH  044%=      5-min Rain = 0
KDO2 070436Z 15010KT 29/16 A2998 RMK A01 T02940159  RH  044%=      5-min Rain = 0
KDO2 070437Z 16008KT 29/16 A2998 RMK A01 T02940159  RH  044%=      5-min Rain = 0
KDO2 070438Z 16008KT 29/16 A2998 RMK A01 T02940159  RH  044%=      5-min Rain = 0
KDO2 070439Z 15008KT 29/16 A2998 RMK A01 T02940159  RH  044%=      5-min Rain = 0
KDO2 070440Z 15008KT 29/16 A2998 RMK A01 T02940159  RH  044%=      5-min Rain = 0
KDO2 070441Z 15009KT 29/16 A2998 RMK A01 T02930159  RH  044%=      5-min Rain = 0
KDO2 070442Z 16009KT 29/16 A2998 RMK A01 T02930159  RH  044%=      5-min Rain = 0
KDO2 070443Z 16009KT 29/16 A2998 RMK A01 T02930159  RH  044%=      5-min Rain = 0
KDO2 070444Z 16009KT 29/16 A2998 RMK A01 T02930159  RH  044%=      5-min Rain = 0
KDO2 070445Z 16009KT 29/16 A2998 RMK A01 T02930159  RH  044%=      5-min Rain = 0
KDO2 070446Z 16010KT 29/16 A2998 RMK A01 T02930160  RH  044%=      5-min Rain = 0
KDO2 070447Z 16009KT 29/16 A2998 RMK A01 T02930160  RH  044%=      5-min Rain = 0
KDO2 070448Z 15008KT 29/16 A2998 RMK A01 T02930160  RH  044%=      5-min Rain = 0
KDO2 070449Z 15009KT 29/16 A2998 RMK A01 T02930160  RH  045%=      5-min Rain = 0
KDO2 070450Z 15008KT 29/16 A2998 RMK A01 T02920160  RH  045%=      5-min Rain = 0
KDO2 070451Z 15008KT 29/16 A2998 RMK A01 T02920160  RH  045%=      5-min Rain = 0
KDO2 070452Z 15009KT 29/16 A2998 RMK A01 T02920160  RH  045%=      5-min Rain = 0
KDO2 070453Z 15008KT 29/16 A2998 RMK A01 T02920160  RH  045%=      5-min Rain = 0
KDO2 070454Z 15008KT 29/16 A2998 RMK A01 T02910160  RH  045%=      5-min Rain = 0
KDO2 070455Z 16008KT 29/16 A2999 RMK A01 T02910161  RH  045%=      5-min Rain = 0
KDO2 070456Z 15008KT 29/16 A2999 RMK A01 T02900160  RH  045%=      5-min Rain = 0
KDO2 070457Z 16008KT 29/16 A2999 RMK A01 T02900161  RH  045%=      5-min Rain = 0
KDO2 070458Z 15008KT 29/16 A2999 RMK A01 T02900161  RH  046%=      5-min Rain = 0
KDO2 070459Z 16008KT 29/16 A2999 RMK A01 T02890160  RH  046%=      5-min Rain = 0

Page generated in 0.0644 seconds.